<?xml version="1.0" encoding="UTF-8" standalone="no" ?>
<gpx xmlns="http://www.topografix.com/GPX/1/1" xmlns:xsi="http://www.w3.org/2001/XMLSchema-instance" xsi:schemaLocation="http://www.topografix.com/GPX/1/1 http://www.topografix.com/GPX/1/1/gpx.xsd" version="1.1" creator="VisuGPX - https://www.visugpx.com">
  <metadata>
    <name>Bargème Le Grand BROUIS 14km 750m</name>
    <desc><![CDATA[Le 12-09-2021. De Bargème au Grand Brouis.
La zone après le sommet pour commencer la descente est à trouver entre les buis. Il faudrait refaire le passage qui a en parti disparu sur 100m environ .
Visite de Bargème en fin de rando.]]></desc>
  </metadata>
  <trk>
    <name><![CDATA[Bargème Le Grand BROUIS 14km 750m 12-09-2021]]></name>
    <trkseg>
      <trkpt lat="43.73005" lon="6.57091">
        <ele>1060.6</ele>
        <time>2021-09-12T07:41:33Z</time>
      </trkpt>
      <trkpt lat="43.73004" lon="6.57097">
        <ele>1061</ele>
        <time>2021-09-12T07:42:22Z</time>
      </trkpt>
      <trkpt lat="43.72997" lon="6.57105">
        <ele>1059.9</ele>
        <time>2021-09-12T07:46:06Z</time>
      </trkpt>
      <trkpt lat="43.72995" lon="6.57112">
        <ele>1059.7</ele>
        <time>2021-09-12T07:46:36Z</time>
      </trkpt>
      <trkpt lat="43.72988" lon="6.57138">
        <ele>1059.2</ele>
        <time>2021-09-12T07:46:55Z</time>
      </trkpt>
      <trkpt lat="43.72983" lon="6.5715">
        <ele>1058.5</ele>
        <time>2021-09-12T07:47:06Z</time>
      </trkpt>
      <trkpt lat="43.72976" lon="6.57166">
        <ele>1056.9</ele>
        <time>2021-09-12T07:47:23Z</time>
      </trkpt>
      <trkpt lat="43.72977" lon="6.57168">
        <ele>1057.6</ele>
        <time>2021-09-12T07:47:24Z</time>
      </trkpt>
      <trkpt lat="43.72967" lon="6.57182">
        <ele>1053.9</ele>
        <time>2021-09-12T07:47:41Z</time>
      </trkpt>
      <trkpt lat="43.7296" lon="6.57194">
        <ele>1051.4</ele>
        <time>2021-09-12T07:47:57Z</time>
      </trkpt>
      <trkpt lat="43.72954" lon="6.57214">
        <ele>1049.5</ele>
        <time>2021-09-12T07:48:15Z</time>
      </trkpt>
      <trkpt lat="43.72947" lon="6.57241">
        <ele>1047.9</ele>
        <time>2021-09-12T07:48:34Z</time>
      </trkpt>
      <trkpt lat="43.72941" lon="6.57276">
        <ele>1045.2</ele>
        <time>2021-09-12T07:48:56Z</time>
      </trkpt>
      <trkpt lat="43.72936" lon="6.57308">
        <ele>1042.4</ele>
        <time>2021-09-12T07:49:16Z</time>
      </trkpt>
      <trkpt lat="43.72936" lon="6.5733">
        <ele>1041.9</ele>
        <time>2021-09-12T07:49:31Z</time>
      </trkpt>
      <trkpt lat="43.72936" lon="6.57348">
        <ele>1040.3</ele>
        <time>2021-09-12T07:49:43Z</time>
      </trkpt>
      <trkpt lat="43.72939" lon="6.57362">
        <ele>1039.4</ele>
        <time>2021-09-12T07:49:54Z</time>
      </trkpt>
      <trkpt lat="43.72944" lon="6.57389">
        <ele>1037.7</ele>
        <time>2021-09-12T07:50:08Z</time>
      </trkpt>
      <trkpt lat="43.72951" lon="6.5741">
        <ele>1037.1</ele>
        <time>2021-09-12T07:50:22Z</time>
      </trkpt>
      <trkpt lat="43.72954" lon="6.57432">
        <ele>1034.3</ele>
        <time>2021-09-12T07:50:36Z</time>
      </trkpt>
      <trkpt lat="43.72955" lon="6.57438">
        <ele>1033.6</ele>
        <time>2021-09-12T07:50:41Z</time>
      </trkpt>
      <trkpt lat="43.72959" lon="6.57456">
        <ele>1031.6</ele>
        <time>2021-09-12T07:50:56Z</time>
      </trkpt>
      <trkpt lat="43.72959" lon="6.57458">
        <ele>1031.2</ele>
        <time>2021-09-12T07:51:09Z</time>
      </trkpt>
      <trkpt lat="43.72959" lon="6.57458">
        <ele>1031.3</ele>
        <time>2021-09-12T07:51:12Z</time>
      </trkpt>
      <trkpt lat="43.72961" lon="6.57462">
        <ele>1031.1</ele>
        <time>2021-09-12T07:51:15Z</time>
      </trkpt>
      <trkpt lat="43.72968" lon="6.57486">
        <ele>1028.3</ele>
        <time>2021-09-12T07:51:30Z</time>
      </trkpt>
      <trkpt lat="43.72973" lon="6.57496">
        <ele>1027.2</ele>
        <time>2021-09-12T07:51:37Z</time>
      </trkpt>
      <trkpt lat="43.72981" lon="6.57505">
        <ele>1026.8</ele>
        <time>2021-09-12T07:51:48Z</time>
      </trkpt>
      <trkpt lat="43.72984" lon="6.57508">
        <ele>1026.7</ele>
        <time>2021-09-12T07:51:57Z</time>
      </trkpt>
      <trkpt lat="43.7298" lon="6.57503">
        <ele>1027.1</ele>
        <time>2021-09-12T07:52:05Z</time>
      </trkpt>
      <trkpt lat="43.72983" lon="6.57497">
        <ele>1029.1</ele>
        <time>2021-09-12T07:52:11Z</time>
      </trkpt>
      <trkpt lat="43.72985" lon="6.57495">
        <ele>1030</ele>
        <time>2021-09-12T07:52:14Z</time>
      </trkpt>
      <trkpt lat="43.72991" lon="6.57493">
        <ele>1031.6</ele>
        <time>2021-09-12T07:52:29Z</time>
      </trkpt>
      <trkpt lat="43.72987" lon="6.57494">
        <ele>1030.6</ele>
        <time>2021-09-12T07:52:35Z</time>
      </trkpt>
      <trkpt lat="43.72977" lon="6.57498">
        <ele>1027.7</ele>
        <time>2021-09-12T07:52:47Z</time>
      </trkpt>
      <trkpt lat="43.72972" lon="6.57496">
        <ele>1027.1</ele>
        <time>2021-09-12T07:52:56Z</time>
      </trkpt>
      <trkpt lat="43.72968" lon="6.57486">
        <ele>1028.2</ele>
        <time>2021-09-12T07:53:05Z</time>
      </trkpt>
      <trkpt lat="43.72961" lon="6.57465">
        <ele>1030.5</ele>
        <time>2021-09-12T07:53:21Z</time>
      </trkpt>
      <trkpt lat="43.72953" lon="6.5745">
        <ele>1031</ele>
        <time>2021-09-12T07:53:35Z</time>
      </trkpt>
      <trkpt lat="43.72956" lon="6.57462">
        <ele>1029.7</ele>
        <time>2021-09-12T07:53:54Z</time>
      </trkpt>
      <trkpt lat="43.72955" lon="6.57465">
        <ele>1029</ele>
        <time>2021-09-12T07:53:57Z</time>
      </trkpt>
      <trkpt lat="43.72949" lon="6.57467">
        <ele>1027.1</ele>
        <time>2021-09-12T07:54:10Z</time>
      </trkpt>
      <trkpt lat="43.72945" lon="6.57468">
        <ele>1026.1</ele>
        <time>2021-09-12T07:54:23Z</time>
      </trkpt>
      <trkpt lat="43.72949" lon="6.57493">
        <ele>1022.8</ele>
        <time>2021-09-12T07:54:41Z</time>
      </trkpt>
      <trkpt lat="43.72947" lon="6.57517">
        <ele>1018.4</ele>
        <time>2021-09-12T07:54:55Z</time>
      </trkpt>
      <trkpt lat="43.72945" lon="6.57527">
        <ele>1016.4</ele>
        <time>2021-09-12T07:55:02Z</time>
      </trkpt>
      <trkpt lat="43.72948" lon="6.57546">
        <ele>1013.6</ele>
        <time>2021-09-12T07:55:16Z</time>
      </trkpt>
      <trkpt lat="43.7295" lon="6.57553">
        <ele>1012.6</ele>
        <time>2021-09-12T07:55:26Z</time>
      </trkpt>
      <trkpt lat="43.72948" lon="6.57584">
        <ele>1007.2</ele>
        <time>2021-09-12T07:55:47Z</time>
      </trkpt>
      <trkpt lat="43.72946" lon="6.57598">
        <ele>1004.9</ele>
        <time>2021-09-12T07:55:57Z</time>
      </trkpt>
      <trkpt lat="43.72949" lon="6.57603">
        <ele>1003.9</ele>
        <time>2021-09-12T07:56:02Z</time>
      </trkpt>
      <trkpt lat="43.72955" lon="6.57613">
        <ele>1002</ele>
        <time>2021-09-12T07:56:16Z</time>
      </trkpt>
      <trkpt lat="43.72954" lon="6.57631">
        <ele>999</ele>
        <time>2021-09-12T07:56:29Z</time>
      </trkpt>
      <trkpt lat="43.72959" lon="6.5764">
        <ele>997</ele>
        <time>2021-09-12T07:56:42Z</time>
      </trkpt>
      <trkpt lat="43.72957" lon="6.57649">
        <ele>995.5</ele>
        <time>2021-09-12T07:56:50Z</time>
      </trkpt>
      <trkpt lat="43.72952" lon="6.5767">
        <ele>992.1</ele>
        <time>2021-09-12T07:57:06Z</time>
      </trkpt>
      <trkpt lat="43.72948" lon="6.57685">
        <ele>990</ele>
        <time>2021-09-12T07:57:18Z</time>
      </trkpt>
      <trkpt lat="43.72944" lon="6.57691">
        <ele>989.1</ele>
        <time>2021-09-12T07:57:24Z</time>
      </trkpt>
      <trkpt lat="43.72937" lon="6.57695">
        <ele>989.2</ele>
        <time>2021-09-12T07:57:31Z</time>
      </trkpt>
      <trkpt lat="43.72933" lon="6.57694">
        <ele>989.9</ele>
        <time>2021-09-12T07:57:35Z</time>
      </trkpt>
      <trkpt lat="43.72926" lon="6.57696">
        <ele>990.2</ele>
        <time>2021-09-12T07:57:42Z</time>
      </trkpt>
      <trkpt lat="43.72913" lon="6.57681">
        <ele>993.6</ele>
        <time>2021-09-12T07:57:58Z</time>
      </trkpt>
      <trkpt lat="43.72901" lon="6.57668">
        <ele>995</ele>
        <time>2021-09-12T07:58:13Z</time>
      </trkpt>
      <trkpt lat="43.72894" lon="6.57662">
        <ele>995.1</ele>
        <time>2021-09-12T07:58:27Z</time>
      </trkpt>
      <trkpt lat="43.72891" lon="6.57669">
        <ele>993.8</ele>
        <time>2021-09-12T07:58:40Z</time>
      </trkpt>
      <trkpt lat="43.72896" lon="6.57684">
        <ele>991.5</ele>
        <time>2021-09-12T07:58:56Z</time>
      </trkpt>
      <trkpt lat="43.72902" lon="6.57701">
        <ele>988.8</ele>
        <time>2021-09-12T07:59:12Z</time>
      </trkpt>
      <trkpt lat="43.72906" lon="6.57718">
        <ele>985.7</ele>
        <time>2021-09-12T07:59:27Z</time>
      </trkpt>
      <trkpt lat="43.72908" lon="6.57729">
        <ele>983.7</ele>
        <time>2021-09-12T07:59:35Z</time>
      </trkpt>
      <trkpt lat="43.72913" lon="6.5775">
        <ele>979.9</ele>
        <time>2021-09-12T07:59:53Z</time>
      </trkpt>
      <trkpt lat="43.72913" lon="6.57764">
        <ele>977.2</ele>
        <time>2021-09-12T08:00:07Z</time>
      </trkpt>
      <trkpt lat="43.72916" lon="6.57778">
        <ele>975</ele>
        <time>2021-09-12T08:00:20Z</time>
      </trkpt>
      <trkpt lat="43.72919" lon="6.57798">
        <ele>971.4</ele>
        <time>2021-09-12T08:00:35Z</time>
      </trkpt>
      <trkpt lat="43.72925" lon="6.5781">
        <ele>969.2</ele>
        <time>2021-09-12T08:00:50Z</time>
      </trkpt>
      <trkpt lat="43.72935" lon="6.57825">
        <ele>966.8</ele>
        <time>2021-09-12T08:01:07Z</time>
      </trkpt>
      <trkpt lat="43.72949" lon="6.57839">
        <ele>965.6</ele>
        <time>2021-09-12T08:01:21Z</time>
      </trkpt>
      <trkpt lat="43.72949" lon="6.57845">
        <ele>965.5</ele>
        <time>2021-09-12T08:01:36Z</time>
      </trkpt>
      <trkpt lat="43.7295" lon="6.57848">
        <ele>965.5</ele>
        <time>2021-09-12T08:01:47Z</time>
      </trkpt>
      <trkpt lat="43.72957" lon="6.57861">
        <ele>965.6</ele>
        <time>2021-09-12T08:01:58Z</time>
      </trkpt>
      <trkpt lat="43.72949" lon="6.57869">
        <ele>965.1</ele>
        <time>2021-09-12T08:02:12Z</time>
      </trkpt>
      <trkpt lat="43.72948" lon="6.57869">
        <ele>965</ele>
        <time>2021-09-12T08:02:38Z</time>
      </trkpt>
      <trkpt lat="43.72947" lon="6.57874">
        <ele>964.8</ele>
        <time>2021-09-12T08:02:44Z</time>
      </trkpt>
      <trkpt lat="43.72942" lon="6.57875">
        <ele>964.5</ele>
        <time>2021-09-12T08:02:59Z</time>
      </trkpt>
      <trkpt lat="43.72938" lon="6.57885">
        <ele>964</ele>
        <time>2021-09-12T08:03:11Z</time>
      </trkpt>
      <trkpt lat="43.72923" lon="6.57911">
        <ele>961.9</ele>
        <time>2021-09-12T08:03:27Z</time>
      </trkpt>
      <trkpt lat="43.72914" lon="6.57926">
        <ele>961.2</ele>
        <time>2021-09-12T08:03:39Z</time>
      </trkpt>
      <trkpt lat="43.72909" lon="6.57933">
        <ele>961.2</ele>
        <time>2021-09-12T08:03:52Z</time>
      </trkpt>
      <trkpt lat="43.72899" lon="6.57961">
        <ele>961.7</ele>
        <time>2021-09-12T08:04:09Z</time>
      </trkpt>
      <trkpt lat="43.72893" lon="6.57984">
        <ele>962.3</ele>
        <time>2021-09-12T08:04:23Z</time>
      </trkpt>
      <trkpt lat="43.72889" lon="6.58012">
        <ele>963.1</ele>
        <time>2021-09-12T08:04:37Z</time>
      </trkpt>
      <trkpt lat="43.72889" lon="6.58036">
        <ele>964</ele>
        <time>2021-09-12T08:04:50Z</time>
      </trkpt>
      <trkpt lat="43.7289" lon="6.58069">
        <ele>965.2</ele>
        <time>2021-09-12T08:05:07Z</time>
      </trkpt>
      <trkpt lat="43.7289" lon="6.58074">
        <ele>965.4</ele>
        <time>2021-09-12T08:05:14Z</time>
      </trkpt>
      <trkpt lat="43.7289" lon="6.58078">
        <ele>965.5</ele>
        <time>2021-09-12T08:05:16Z</time>
      </trkpt>
      <trkpt lat="43.72891" lon="6.58106">
        <ele>966.2</ele>
        <time>2021-09-12T08:05:31Z</time>
      </trkpt>
      <trkpt lat="43.7289" lon="6.58117">
        <ele>966.4</ele>
        <time>2021-09-12T08:05:38Z</time>
      </trkpt>
      <trkpt lat="43.72885" lon="6.58131">
        <ele>966.6</ele>
        <time>2021-09-12T08:05:52Z</time>
      </trkpt>
      <trkpt lat="43.7288" lon="6.58159">
        <ele>967.2</ele>
        <time>2021-09-12T08:06:10Z</time>
      </trkpt>
      <trkpt lat="43.72881" lon="6.58182">
        <ele>967.3</ele>
        <time>2021-09-12T08:06:24Z</time>
      </trkpt>
      <trkpt lat="43.7288" lon="6.58204">
        <ele>967.1</ele>
        <time>2021-09-12T08:06:37Z</time>
      </trkpt>
      <trkpt lat="43.72882" lon="6.58217">
        <ele>966.9</ele>
        <time>2021-09-12T08:06:46Z</time>
      </trkpt>
      <trkpt lat="43.72882" lon="6.58236">
        <ele>966.7</ele>
        <time>2021-09-12T08:06:59Z</time>
      </trkpt>
      <trkpt lat="43.72881" lon="6.58247">
        <ele>966.6</ele>
        <time>2021-09-12T08:07:06Z</time>
      </trkpt>
      <trkpt lat="43.72882" lon="6.58259">
        <ele>966.8</ele>
        <time>2021-09-12T08:07:16Z</time>
      </trkpt>
      <trkpt lat="43.72881" lon="6.58277">
        <ele>967.4</ele>
        <time>2021-09-12T08:07:30Z</time>
      </trkpt>
      <trkpt lat="43.72883" lon="6.58296">
        <ele>967.8</ele>
        <time>2021-09-12T08:07:43Z</time>
      </trkpt>
      <trkpt lat="43.72886" lon="6.58305">
        <ele>967.5</ele>
        <time>2021-09-12T08:07:53Z</time>
      </trkpt>
      <trkpt lat="43.72888" lon="6.5831">
        <ele>967.4</ele>
        <time>2021-09-12T08:08:00Z</time>
      </trkpt>
      <trkpt lat="43.72881" lon="6.58341">
        <ele>969.5</ele>
        <time>2021-09-12T08:08:18Z</time>
      </trkpt>
      <trkpt lat="43.7288" lon="6.58354">
        <ele>970.3</ele>
        <time>2021-09-12T08:08:26Z</time>
      </trkpt>
      <trkpt lat="43.72882" lon="6.58375">
        <ele>970.8</ele>
        <time>2021-09-12T08:08:38Z</time>
      </trkpt>
      <trkpt lat="43.72882" lon="6.58376">
        <ele>970.8</ele>
        <time>2021-09-12T08:08:39Z</time>
      </trkpt>
      <trkpt lat="43.72882" lon="6.58399">
        <ele>971.8</ele>
        <time>2021-09-12T08:08:52Z</time>
      </trkpt>
      <trkpt lat="43.72882" lon="6.58401">
        <ele>971.9</ele>
        <time>2021-09-12T08:08:53Z</time>
      </trkpt>
      <trkpt lat="43.72883" lon="6.58408">
        <ele>971.9</ele>
        <time>2021-09-12T08:08:57Z</time>
      </trkpt>
      <trkpt lat="43.72884" lon="6.58427">
        <ele>971.5</ele>
        <time>2021-09-12T08:09:09Z</time>
      </trkpt>
      <trkpt lat="43.72884" lon="6.58428">
        <ele>971.5</ele>
        <time>2021-09-12T08:09:11Z</time>
      </trkpt>
      <trkpt lat="43.72889" lon="6.58453">
        <ele>969.3</ele>
        <time>2021-09-12T08:09:27Z</time>
      </trkpt>
      <trkpt lat="43.7289" lon="6.58476">
        <ele>968.3</ele>
        <time>2021-09-12T08:09:42Z</time>
      </trkpt>
      <trkpt lat="43.72891" lon="6.58481">
        <ele>967.8</ele>
        <time>2021-09-12T08:09:45Z</time>
      </trkpt>
      <trkpt lat="43.72892" lon="6.58502">
        <ele>967.1</ele>
        <time>2021-09-12T08:09:54Z</time>
      </trkpt>
      <trkpt lat="43.72893" lon="6.58515">
        <ele>966.4</ele>
        <time>2021-09-12T08:10:01Z</time>
      </trkpt>
      <trkpt lat="43.72893" lon="6.58546">
        <ele>965.5</ele>
        <time>2021-09-12T08:10:18Z</time>
      </trkpt>
      <trkpt lat="43.72894" lon="6.58555">
        <ele>965</ele>
        <time>2021-09-12T08:10:23Z</time>
      </trkpt>
      <trkpt lat="43.72894" lon="6.58586">
        <ele>964</ele>
        <time>2021-09-12T08:10:42Z</time>
      </trkpt>
      <trkpt lat="43.72893" lon="6.58605">
        <ele>963.2</ele>
        <time>2021-09-12T08:10:54Z</time>
      </trkpt>
      <trkpt lat="43.72892" lon="6.58645">
        <ele>961.1</ele>
        <time>2021-09-12T08:11:16Z</time>
      </trkpt>
      <trkpt lat="43.72892" lon="6.58667">
        <ele>959.5</ele>
        <time>2021-09-12T08:11:28Z</time>
      </trkpt>
      <trkpt lat="43.72895" lon="6.58698">
        <ele>956.4</ele>
        <time>2021-09-12T08:11:47Z</time>
      </trkpt>
      <trkpt lat="43.72897" lon="6.58714">
        <ele>954.7</ele>
        <time>2021-09-12T08:11:58Z</time>
      </trkpt>
      <trkpt lat="43.72899" lon="6.58725">
        <ele>953.5</ele>
        <time>2021-09-12T08:12:06Z</time>
      </trkpt>
      <trkpt lat="43.72899" lon="6.58732">
        <ele>952.9</ele>
        <time>2021-09-12T08:12:09Z</time>
      </trkpt>
      <trkpt lat="43.72899" lon="6.58737">
        <ele>952.5</ele>
        <time>2021-09-12T08:12:12Z</time>
      </trkpt>
      <trkpt lat="43.729" lon="6.58749">
        <ele>951.5</ele>
        <time>2021-09-12T08:12:17Z</time>
      </trkpt>
      <trkpt lat="43.729" lon="6.58754">
        <ele>951</ele>
        <time>2021-09-12T08:12:20Z</time>
      </trkpt>
      <trkpt lat="43.72897" lon="6.5878">
        <ele>949.1</ele>
        <time>2021-09-12T08:12:34Z</time>
      </trkpt>
      <trkpt lat="43.72888" lon="6.58801">
        <ele>947.7</ele>
        <time>2021-09-12T08:12:47Z</time>
      </trkpt>
      <trkpt lat="43.72888" lon="6.58822">
        <ele>945.6</ele>
        <time>2021-09-12T08:13:02Z</time>
      </trkpt>
      <trkpt lat="43.7289" lon="6.58837">
        <ele>944</ele>
        <time>2021-09-12T08:13:13Z</time>
      </trkpt>
      <trkpt lat="43.72898" lon="6.58868">
        <ele>941.1</ele>
        <time>2021-09-12T08:13:36Z</time>
      </trkpt>
      <trkpt lat="43.72904" lon="6.58891">
        <ele>938.8</ele>
        <time>2021-09-12T08:13:52Z</time>
      </trkpt>
      <trkpt lat="43.72911" lon="6.58911">
        <ele>936.7</ele>
        <time>2021-09-12T08:14:06Z</time>
      </trkpt>
      <trkpt lat="43.72916" lon="6.58934">
        <ele>937.7</ele>
        <time>2021-09-12T08:14:20Z</time>
      </trkpt>
      <trkpt lat="43.72919" lon="6.58956">
        <ele>939.8</ele>
        <time>2021-09-12T08:14:34Z</time>
      </trkpt>
      <trkpt lat="43.72929" lon="6.58972">
        <ele>941.1</ele>
        <time>2021-09-12T08:14:46Z</time>
      </trkpt>
      <trkpt lat="43.72941" lon="6.58985">
        <ele>941.7</ele>
        <time>2021-09-12T08:14:59Z</time>
      </trkpt>
      <trkpt lat="43.72955" lon="6.59">
        <ele>941.7</ele>
        <time>2021-09-12T08:15:15Z</time>
      </trkpt>
      <trkpt lat="43.72964" lon="6.59012">
        <ele>942.6</ele>
        <time>2021-09-12T08:15:26Z</time>
      </trkpt>
      <trkpt lat="43.72965" lon="6.59014">
        <ele>942.8</ele>
        <time>2021-09-12T08:15:28Z</time>
      </trkpt>
      <trkpt lat="43.72974" lon="6.5902">
        <ele>942.6</ele>
        <time>2021-09-12T08:15:35Z</time>
      </trkpt>
      <trkpt lat="43.72989" lon="6.59037">
        <ele>942.3</ele>
        <time>2021-09-12T08:15:50Z</time>
      </trkpt>
      <trkpt lat="43.72994" lon="6.59055">
        <ele>942.8</ele>
        <time>2021-09-12T08:16:02Z</time>
      </trkpt>
      <trkpt lat="43.72995" lon="6.59064">
        <ele>943.1</ele>
        <time>2021-09-12T08:16:13Z</time>
      </trkpt>
      <trkpt lat="43.72997" lon="6.59066">
        <ele>942.8</ele>
        <time>2021-09-12T08:16:28Z</time>
      </trkpt>
      <trkpt lat="43.72998" lon="6.5907">
        <ele>942.7</ele>
        <time>2021-09-12T08:16:31Z</time>
      </trkpt>
      <trkpt lat="43.73007" lon="6.59091">
        <ele>944.5</ele>
        <time>2021-09-12T08:16:45Z</time>
      </trkpt>
      <trkpt lat="43.73017" lon="6.59112">
        <ele>947.3</ele>
        <time>2021-09-12T08:17:00Z</time>
      </trkpt>
      <trkpt lat="43.73024" lon="6.59124">
        <ele>948.5</ele>
        <time>2021-09-12T08:17:10Z</time>
      </trkpt>
      <trkpt lat="43.73027" lon="6.59134">
        <ele>949.3</ele>
        <time>2021-09-12T08:17:17Z</time>
      </trkpt>
      <trkpt lat="43.73037" lon="6.59152">
        <ele>950.1</ele>
        <time>2021-09-12T08:17:31Z</time>
      </trkpt>
      <trkpt lat="43.73041" lon="6.59158">
        <ele>950</ele>
        <time>2021-09-12T08:17:35Z</time>
      </trkpt>
      <trkpt lat="43.73047" lon="6.59173">
        <ele>950.2</ele>
        <time>2021-09-12T08:17:46Z</time>
      </trkpt>
      <trkpt lat="43.73053" lon="6.59192">
        <ele>950.5</ele>
        <time>2021-09-12T08:17:59Z</time>
      </trkpt>
      <trkpt lat="43.73058" lon="6.5921">
        <ele>950.5</ele>
        <time>2021-09-12T08:18:09Z</time>
      </trkpt>
      <trkpt lat="43.73065" lon="6.59225">
        <ele>949.8</ele>
        <time>2021-09-12T08:18:22Z</time>
      </trkpt>
      <trkpt lat="43.73066" lon="6.59229">
        <ele>949.8</ele>
        <time>2021-09-12T08:18:36Z</time>
      </trkpt>
      <trkpt lat="43.73059" lon="6.59233">
        <ele>951.7</ele>
        <time>2021-09-12T08:19:07Z</time>
      </trkpt>
      <trkpt lat="43.73059" lon="6.59229">
        <ele>951.5</ele>
        <time>2021-09-12T08:19:21Z</time>
      </trkpt>
      <trkpt lat="43.73065" lon="6.59227">
        <ele>949.8</ele>
        <time>2021-09-12T08:19:40Z</time>
      </trkpt>
      <trkpt lat="43.73069" lon="6.59221">
        <ele>948.7</ele>
        <time>2021-09-12T08:20:00Z</time>
      </trkpt>
      <trkpt lat="43.73063" lon="6.59233">
        <ele>950.6</ele>
        <time>2021-09-12T08:20:17Z</time>
      </trkpt>
      <trkpt lat="43.73067" lon="6.59243">
        <ele>950.3</ele>
        <time>2021-09-12T08:20:29Z</time>
      </trkpt>
      <trkpt lat="43.7307" lon="6.59245">
        <ele>949.5</ele>
        <time>2021-09-12T08:20:39Z</time>
      </trkpt>
      <trkpt lat="43.73072" lon="6.59247">
        <ele>948.9</ele>
        <time>2021-09-12T08:20:43Z</time>
      </trkpt>
      <trkpt lat="43.73071" lon="6.59255">
        <ele>949.9</ele>
        <time>2021-09-12T08:21:03Z</time>
      </trkpt>
      <trkpt lat="43.73083" lon="6.59296">
        <ele>950</ele>
        <time>2021-09-12T08:21:30Z</time>
      </trkpt>
      <trkpt lat="43.73089" lon="6.59315">
        <ele>951.3</ele>
        <time>2021-09-12T08:21:48Z</time>
      </trkpt>
      <trkpt lat="43.73097" lon="6.59329">
        <ele>952</ele>
        <time>2021-09-12T08:22:01Z</time>
      </trkpt>
      <trkpt lat="43.73101" lon="6.59342">
        <ele>952.8</ele>
        <time>2021-09-12T08:22:11Z</time>
      </trkpt>
      <trkpt lat="43.73106" lon="6.5936">
        <ele>953.8</ele>
        <time>2021-09-12T08:22:24Z</time>
      </trkpt>
      <trkpt lat="43.7311" lon="6.59371">
        <ele>954.4</ele>
        <time>2021-09-12T08:22:32Z</time>
      </trkpt>
      <trkpt lat="43.73109" lon="6.59382">
        <ele>955.1</ele>
        <time>2021-09-12T08:22:39Z</time>
      </trkpt>
      <trkpt lat="43.73108" lon="6.59398">
        <ele>956.3</ele>
        <time>2021-09-12T08:22:51Z</time>
      </trkpt>
      <trkpt lat="43.7311" lon="6.59425">
        <ele>957.7</ele>
        <time>2021-09-12T08:23:08Z</time>
      </trkpt>
      <trkpt lat="43.73118" lon="6.59454">
        <ele>957.2</ele>
        <time>2021-09-12T08:23:28Z</time>
      </trkpt>
      <trkpt lat="43.73119" lon="6.59468">
        <ele>957.4</ele>
        <time>2021-09-12T08:23:37Z</time>
      </trkpt>
      <trkpt lat="43.73119" lon="6.59488">
        <ele>957.8</ele>
        <time>2021-09-12T08:23:51Z</time>
      </trkpt>
      <trkpt lat="43.73122" lon="6.59496">
        <ele>957.4</ele>
        <time>2021-09-12T08:23:57Z</time>
      </trkpt>
      <trkpt lat="43.73123" lon="6.59505">
        <ele>957.4</ele>
        <time>2021-09-12T08:24:04Z</time>
      </trkpt>
      <trkpt lat="43.73123" lon="6.59512">
        <ele>957.5</ele>
        <time>2021-09-12T08:24:08Z</time>
      </trkpt>
      <trkpt lat="43.73122" lon="6.59522">
        <ele>957.9</ele>
        <time>2021-09-12T08:24:14Z</time>
      </trkpt>
      <trkpt lat="43.73119" lon="6.59545">
        <ele>958.8</ele>
        <time>2021-09-12T08:24:29Z</time>
      </trkpt>
      <trkpt lat="43.73119" lon="6.59573">
        <ele>959.1</ele>
        <time>2021-09-12T08:24:47Z</time>
      </trkpt>
      <trkpt lat="43.73115" lon="6.59601">
        <ele>959.7</ele>
        <time>2021-09-12T08:25:07Z</time>
      </trkpt>
      <trkpt lat="43.73111" lon="6.59623">
        <ele>960</ele>
        <time>2021-09-12T08:25:24Z</time>
      </trkpt>
      <trkpt lat="43.73109" lon="6.59633">
        <ele>960.2</ele>
        <time>2021-09-12T08:25:32Z</time>
      </trkpt>
      <trkpt lat="43.73108" lon="6.59644">
        <ele>960.3</ele>
        <time>2021-09-12T08:25:41Z</time>
      </trkpt>
      <trkpt lat="43.73105" lon="6.59658">
        <ele>960.5</ele>
        <time>2021-09-12T08:25:52Z</time>
      </trkpt>
      <trkpt lat="43.73101" lon="6.59676">
        <ele>960.9</ele>
        <time>2021-09-12T08:26:05Z</time>
      </trkpt>
      <trkpt lat="43.73098" lon="6.59693">
        <ele>961.2</ele>
        <time>2021-09-12T08:26:16Z</time>
      </trkpt>
      <trkpt lat="43.73099" lon="6.59711">
        <ele>960.8</ele>
        <time>2021-09-12T08:26:26Z</time>
      </trkpt>
      <trkpt lat="43.73101" lon="6.5972">
        <ele>960.4</ele>
        <time>2021-09-12T08:26:32Z</time>
      </trkpt>
      <trkpt lat="43.73111" lon="6.59736">
        <ele>959</ele>
        <time>2021-09-12T08:26:44Z</time>
      </trkpt>
      <trkpt lat="43.73115" lon="6.59743">
        <ele>958.6</ele>
        <time>2021-09-12T08:26:51Z</time>
      </trkpt>
      <trkpt lat="43.73115" lon="6.5975">
        <ele>958.5</ele>
        <time>2021-09-12T08:26:57Z</time>
      </trkpt>
      <trkpt lat="43.73121" lon="6.59756">
        <ele>958.6</ele>
        <time>2021-09-12T08:27:06Z</time>
      </trkpt>
      <trkpt lat="43.73125" lon="6.59764">
        <ele>959</ele>
        <time>2021-09-12T08:27:13Z</time>
      </trkpt>
      <trkpt lat="43.73127" lon="6.59774">
        <ele>959.9</ele>
        <time>2021-09-12T08:27:21Z</time>
      </trkpt>
      <trkpt lat="43.73128" lon="6.59789">
        <ele>961.4</ele>
        <time>2021-09-12T08:27:34Z</time>
      </trkpt>
      <trkpt lat="43.73136" lon="6.59817">
        <ele>963.7</ele>
        <time>2021-09-12T08:27:56Z</time>
      </trkpt>
      <trkpt lat="43.7314" lon="6.59825">
        <ele>964.2</ele>
        <time>2021-09-12T08:28:03Z</time>
      </trkpt>
      <trkpt lat="43.73152" lon="6.59852">
        <ele>966.9</ele>
        <time>2021-09-12T08:28:23Z</time>
      </trkpt>
      <trkpt lat="43.73164" lon="6.59872">
        <ele>968.8</ele>
        <time>2021-09-12T08:28:40Z</time>
      </trkpt>
      <trkpt lat="43.73166" lon="6.59877">
        <ele>969.4</ele>
        <time>2021-09-12T08:28:44Z</time>
      </trkpt>
      <trkpt lat="43.73168" lon="6.59882">
        <ele>969.9</ele>
        <time>2021-09-12T08:28:47Z</time>
      </trkpt>
      <trkpt lat="43.73178" lon="6.5991">
        <ele>972.5</ele>
        <time>2021-09-12T08:29:06Z</time>
      </trkpt>
      <trkpt lat="43.73185" lon="6.59938">
        <ele>974.2</ele>
        <time>2021-09-12T08:29:25Z</time>
      </trkpt>
      <trkpt lat="43.73192" lon="6.59956">
        <ele>974.4</ele>
        <time>2021-09-12T08:29:39Z</time>
      </trkpt>
      <trkpt lat="43.73198" lon="6.59979">
        <ele>975.1</ele>
        <time>2021-09-12T08:29:57Z</time>
      </trkpt>
      <trkpt lat="43.73202" lon="6.59995">
        <ele>975.4</ele>
        <time>2021-09-12T08:30:08Z</time>
      </trkpt>
      <trkpt lat="43.73204" lon="6.60007">
        <ele>976.2</ele>
        <time>2021-09-12T08:30:16Z</time>
      </trkpt>
      <trkpt lat="43.73208" lon="6.60025">
        <ele>977.2</ele>
        <time>2021-09-12T08:30:29Z</time>
      </trkpt>
      <trkpt lat="43.73213" lon="6.60035">
        <ele>977.3</ele>
        <time>2021-09-12T08:30:37Z</time>
      </trkpt>
      <trkpt lat="43.73219" lon="6.60053">
        <ele>978</ele>
        <time>2021-09-12T08:30:48Z</time>
      </trkpt>
      <trkpt lat="43.73224" lon="6.60067">
        <ele>978.6</ele>
        <time>2021-09-12T08:30:59Z</time>
      </trkpt>
      <trkpt lat="43.73235" lon="6.60093">
        <ele>978.6</ele>
        <time>2021-09-12T08:31:18Z</time>
      </trkpt>
      <trkpt lat="43.73238" lon="6.60115">
        <ele>979</ele>
        <time>2021-09-12T08:31:29Z</time>
      </trkpt>
      <trkpt lat="43.73239" lon="6.6012">
        <ele>979.1</ele>
        <time>2021-09-12T08:31:32Z</time>
      </trkpt>
      <trkpt lat="43.73241" lon="6.60138">
        <ele>979.6</ele>
        <time>2021-09-12T08:31:47Z</time>
      </trkpt>
      <trkpt lat="43.73243" lon="6.6015">
        <ele>979.7</ele>
        <time>2021-09-12T08:31:57Z</time>
      </trkpt>
      <trkpt lat="43.7324" lon="6.60161">
        <ele>980.9</ele>
        <time>2021-09-12T08:32:12Z</time>
      </trkpt>
      <trkpt lat="43.7324" lon="6.60171">
        <ele>981.2</ele>
        <time>2021-09-12T08:32:22Z</time>
      </trkpt>
      <trkpt lat="43.73244" lon="6.60204">
        <ele>981</ele>
        <time>2021-09-12T08:32:40Z</time>
      </trkpt>
      <trkpt lat="43.73243" lon="6.60232">
        <ele>981.7</ele>
        <time>2021-09-12T08:32:58Z</time>
      </trkpt>
      <trkpt lat="43.73245" lon="6.60259">
        <ele>982</ele>
        <time>2021-09-12T08:33:13Z</time>
      </trkpt>
      <trkpt lat="43.73249" lon="6.60275">
        <ele>981.9</ele>
        <time>2021-09-12T08:33:24Z</time>
      </trkpt>
      <trkpt lat="43.73253" lon="6.60294">
        <ele>982.3</ele>
        <time>2021-09-12T08:33:36Z</time>
      </trkpt>
      <trkpt lat="43.73254" lon="6.60312">
        <ele>983.3</ele>
        <time>2021-09-12T08:33:47Z</time>
      </trkpt>
      <trkpt lat="43.73259" lon="6.60344">
        <ele>984.9</ele>
        <time>2021-09-12T08:34:09Z</time>
      </trkpt>
      <trkpt lat="43.73268" lon="6.60373">
        <ele>986.2</ele>
        <time>2021-09-12T08:34:28Z</time>
      </trkpt>
      <trkpt lat="43.73268" lon="6.60374">
        <ele>986.3</ele>
        <time>2021-09-12T08:34:29Z</time>
      </trkpt>
      <trkpt lat="43.73274" lon="6.60399">
        <ele>987.5</ele>
        <time>2021-09-12T08:34:45Z</time>
      </trkpt>
      <trkpt lat="43.73281" lon="6.60432">
        <ele>988.1</ele>
        <time>2021-09-12T08:35:05Z</time>
      </trkpt>
      <trkpt lat="43.73278" lon="6.60466">
        <ele>989.1</ele>
        <time>2021-09-12T08:35:26Z</time>
      </trkpt>
      <trkpt lat="43.73278" lon="6.60496">
        <ele>989.6</ele>
        <time>2021-09-12T08:35:43Z</time>
      </trkpt>
      <trkpt lat="43.73278" lon="6.60504">
        <ele>989.7</ele>
        <time>2021-09-12T08:35:48Z</time>
      </trkpt>
      <trkpt lat="43.7328" lon="6.60513">
        <ele>989.7</ele>
        <time>2021-09-12T08:35:54Z</time>
      </trkpt>
      <trkpt lat="43.73281" lon="6.6052">
        <ele>989.7</ele>
        <time>2021-09-12T08:35:58Z</time>
      </trkpt>
      <trkpt lat="43.73281" lon="6.60525">
        <ele>989.8</ele>
        <time>2021-09-12T08:36:01Z</time>
      </trkpt>
      <trkpt lat="43.73281" lon="6.60531">
        <ele>990</ele>
        <time>2021-09-12T08:36:04Z</time>
      </trkpt>
      <trkpt lat="43.73282" lon="6.60535">
        <ele>990.1</ele>
        <time>2021-09-12T08:36:07Z</time>
      </trkpt>
      <trkpt lat="43.73282" lon="6.60543">
        <ele>990.3</ele>
        <time>2021-09-12T08:36:13Z</time>
      </trkpt>
      <trkpt lat="43.73281" lon="6.6056">
        <ele>990.9</ele>
        <time>2021-09-12T08:36:24Z</time>
      </trkpt>
      <trkpt lat="43.73281" lon="6.60581">
        <ele>991.5</ele>
        <time>2021-09-12T08:36:36Z</time>
      </trkpt>
      <trkpt lat="43.73283" lon="6.60592">
        <ele>991.4</ele>
        <time>2021-09-12T08:36:43Z</time>
      </trkpt>
      <trkpt lat="43.73285" lon="6.60599">
        <ele>991.2</ele>
        <time>2021-09-12T08:36:48Z</time>
      </trkpt>
      <trkpt lat="43.73286" lon="6.60605">
        <ele>991.2</ele>
        <time>2021-09-12T08:36:52Z</time>
      </trkpt>
      <trkpt lat="43.73288" lon="6.6064">
        <ele>991.5</ele>
        <time>2021-09-12T08:37:14Z</time>
      </trkpt>
      <trkpt lat="43.73294" lon="6.60667">
        <ele>991.2</ele>
        <time>2021-09-12T08:37:34Z</time>
      </trkpt>
      <trkpt lat="43.73294" lon="6.60698">
        <ele>991.1</ele>
        <time>2021-09-12T08:37:54Z</time>
      </trkpt>
      <trkpt lat="43.73295" lon="6.6073">
        <ele>990.8</ele>
        <time>2021-09-12T08:38:14Z</time>
      </trkpt>
      <trkpt lat="43.73297" lon="6.60756">
        <ele>990.3</ele>
        <time>2021-09-12T08:38:29Z</time>
      </trkpt>
      <trkpt lat="43.733" lon="6.60779">
        <ele>989.7</ele>
        <time>2021-09-12T08:38:43Z</time>
      </trkpt>
      <trkpt lat="43.73299" lon="6.60788">
        <ele>989.6</ele>
        <time>2021-09-12T08:38:52Z</time>
      </trkpt>
      <trkpt lat="43.73299" lon="6.60807">
        <ele>989.1</ele>
        <time>2021-09-12T08:39:04Z</time>
      </trkpt>
      <trkpt lat="43.73301" lon="6.60826">
        <ele>988.7</ele>
        <time>2021-09-12T08:39:16Z</time>
      </trkpt>
      <trkpt lat="43.73303" lon="6.60832">
        <ele>988.5</ele>
        <time>2021-09-12T08:39:20Z</time>
      </trkpt>
      <trkpt lat="43.73308" lon="6.60844">
        <ele>987.6</ele>
        <time>2021-09-12T08:39:30Z</time>
      </trkpt>
      <trkpt lat="43.73322" lon="6.60861">
        <ele>986.1</ele>
        <time>2021-09-12T08:39:45Z</time>
      </trkpt>
      <trkpt lat="43.73332" lon="6.60877">
        <ele>984.9</ele>
        <time>2021-09-12T08:39:58Z</time>
      </trkpt>
      <trkpt lat="43.73339" lon="6.60891">
        <ele>984.6</ele>
        <time>2021-09-12T08:40:08Z</time>
      </trkpt>
      <trkpt lat="43.73345" lon="6.6091">
        <ele>984.3</ele>
        <time>2021-09-12T08:40:20Z</time>
      </trkpt>
      <trkpt lat="43.73349" lon="6.60927">
        <ele>984.8</ele>
        <time>2021-09-12T08:40:33Z</time>
      </trkpt>
      <trkpt lat="43.73351" lon="6.60937">
        <ele>985.5</ele>
        <time>2021-09-12T08:40:44Z</time>
      </trkpt>
      <trkpt lat="43.73351" lon="6.6095">
        <ele>986.1</ele>
        <time>2021-09-12T08:41:01Z</time>
      </trkpt>
      <trkpt lat="43.73351" lon="6.60954">
        <ele>986.3</ele>
        <time>2021-09-12T08:41:12Z</time>
      </trkpt>
      <trkpt lat="43.73344" lon="6.60972">
        <ele>986.6</ele>
        <time>2021-09-12T08:41:28Z</time>
      </trkpt>
      <trkpt lat="43.73344" lon="6.60982">
        <ele>987</ele>
        <time>2021-09-12T08:41:37Z</time>
      </trkpt>
      <trkpt lat="43.73345" lon="6.60999">
        <ele>988</ele>
        <time>2021-09-12T08:41:57Z</time>
      </trkpt>
      <trkpt lat="43.73352" lon="6.61014">
        <ele>990.2</ele>
        <time>2021-09-12T08:42:13Z</time>
      </trkpt>
      <trkpt lat="43.73359" lon="6.61039">
        <ele>993.8</ele>
        <time>2021-09-12T08:42:38Z</time>
      </trkpt>
      <trkpt lat="43.73358" lon="6.61052">
        <ele>995.4</ele>
        <time>2021-09-12T08:42:56Z</time>
      </trkpt>
      <trkpt lat="43.73357" lon="6.61059">
        <ele>996</ele>
        <time>2021-09-12T08:43:11Z</time>
      </trkpt>
      <trkpt lat="43.73356" lon="6.61067">
        <ele>996.9</ele>
        <time>2021-09-12T08:43:25Z</time>
      </trkpt>
      <trkpt lat="43.73364" lon="6.61081">
        <ele>999.3</ele>
        <time>2021-09-12T08:43:45Z</time>
      </trkpt>
      <trkpt lat="43.73372" lon="6.61097">
        <ele>1001.8</ele>
        <time>2021-09-12T08:44:03Z</time>
      </trkpt>
      <trkpt lat="43.73379" lon="6.61112">
        <ele>1004</ele>
        <time>2021-09-12T08:44:21Z</time>
      </trkpt>
      <trkpt lat="43.73382" lon="6.61116">
        <ele>1004.7</ele>
        <time>2021-09-12T08:44:25Z</time>
      </trkpt>
      <trkpt lat="43.73386" lon="6.61131">
        <ele>1006.8</ele>
        <time>2021-09-12T08:44:41Z</time>
      </trkpt>
      <trkpt lat="43.73385" lon="6.61152">
        <ele>1009</ele>
        <time>2021-09-12T08:44:59Z</time>
      </trkpt>
      <trkpt lat="43.73387" lon="6.61166">
        <ele>1010.7</ele>
        <time>2021-09-12T08:45:12Z</time>
      </trkpt>
      <trkpt lat="43.73397" lon="6.61183">
        <ele>1012.1</ele>
        <time>2021-09-12T08:45:32Z</time>
      </trkpt>
      <trkpt lat="43.73413" lon="6.61202">
        <ele>1013.7</ele>
        <time>2021-09-12T08:45:52Z</time>
      </trkpt>
      <trkpt lat="43.73431" lon="6.61227">
        <ele>1014.4</ele>
        <time>2021-09-12T08:46:12Z</time>
      </trkpt>
      <trkpt lat="43.7345" lon="6.61258">
        <ele>1014.8</ele>
        <time>2021-09-12T08:46:38Z</time>
      </trkpt>
      <trkpt lat="43.73472" lon="6.61277">
        <ele>1014.5</ele>
        <time>2021-09-12T08:46:59Z</time>
      </trkpt>
      <trkpt lat="43.7348" lon="6.61286">
        <ele>1014.3</ele>
        <time>2021-09-12T08:47:11Z</time>
      </trkpt>
      <trkpt lat="43.73495" lon="6.61295">
        <ele>1014.8</ele>
        <time>2021-09-12T08:47:30Z</time>
      </trkpt>
      <trkpt lat="43.73519" lon="6.61307">
        <ele>1017.7</ele>
        <time>2021-09-12T08:47:51Z</time>
      </trkpt>
      <trkpt lat="43.7353" lon="6.61305">
        <ele>1019.4</ele>
        <time>2021-09-12T08:48:02Z</time>
      </trkpt>
      <trkpt lat="43.73533" lon="6.61302">
        <ele>1020.1</ele>
        <time>2021-09-12T08:48:11Z</time>
      </trkpt>
      <trkpt lat="43.73533" lon="6.61302">
        <ele>1020</ele>
        <time>2021-09-12T08:48:29Z</time>
      </trkpt>
      <trkpt lat="43.73532" lon="6.613">
        <ele>1019.9</ele>
        <time>2021-09-12T08:48:52Z</time>
      </trkpt>
      <trkpt lat="43.73533" lon="6.61302">
        <ele>1019.9</ele>
        <time>2021-09-12T08:49:45Z</time>
      </trkpt>
      <trkpt lat="43.73532" lon="6.61304">
        <ele>1019.8</ele>
        <time>2021-09-12T08:50:27Z</time>
      </trkpt>
      <trkpt lat="43.73532" lon="6.61304">
        <ele>1019.9</ele>
        <time>2021-09-12T08:51:06Z</time>
      </trkpt>
      <trkpt lat="43.73534" lon="6.61305">
        <ele>1020.1</ele>
        <time>2021-09-12T08:51:51Z</time>
      </trkpt>
      <trkpt lat="43.73531" lon="6.613">
        <ele>1019.7</ele>
        <time>2021-09-12T08:52:34Z</time>
      </trkpt>
      <trkpt lat="43.73533" lon="6.61301">
        <ele>1020.1</ele>
        <time>2021-09-12T08:53:31Z</time>
      </trkpt>
      <trkpt lat="43.73535" lon="6.61304">
        <ele>1020.3</ele>
        <time>2021-09-12T08:54:07Z</time>
      </trkpt>
      <trkpt lat="43.73533" lon="6.61302">
        <ele>1020.1</ele>
        <time>2021-09-12T08:54:41Z</time>
      </trkpt>
      <trkpt lat="43.73529" lon="6.61298">
        <ele>1019.6</ele>
        <time>2021-09-12T08:55:15Z</time>
      </trkpt>
      <trkpt lat="43.73531" lon="6.61302">
        <ele>1019.6</ele>
        <time>2021-09-12T08:55:37Z</time>
      </trkpt>
      <trkpt lat="43.73538" lon="6.61304">
        <ele>1020.8</ele>
        <time>2021-09-12T08:55:50Z</time>
      </trkpt>
      <trkpt lat="43.73539" lon="6.61305">
        <ele>1020.9</ele>
        <time>2021-09-12T08:56:01Z</time>
      </trkpt>
      <trkpt lat="43.73548" lon="6.61301">
        <ele>1022.4</ele>
        <time>2021-09-12T08:56:17Z</time>
      </trkpt>
      <trkpt lat="43.73568" lon="6.61302">
        <ele>1025.4</ele>
        <time>2021-09-12T08:56:42Z</time>
      </trkpt>
      <trkpt lat="43.73584" lon="6.61304">
        <ele>1028.2</ele>
        <time>2021-09-12T08:57:01Z</time>
      </trkpt>
      <trkpt lat="43.736" lon="6.61297">
        <ele>1031.9</ele>
        <time>2021-09-12T08:57:21Z</time>
      </trkpt>
      <trkpt lat="43.73607" lon="6.61284">
        <ele>1033.1</ele>
        <time>2021-09-12T08:57:37Z</time>
      </trkpt>
      <trkpt lat="43.73619" lon="6.6127">
        <ele>1035.6</ele>
        <time>2021-09-12T08:57:56Z</time>
      </trkpt>
      <trkpt lat="43.73631" lon="6.61255">
        <ele>1038</ele>
        <time>2021-09-12T08:58:17Z</time>
      </trkpt>
      <trkpt lat="43.73642" lon="6.61246">
        <ele>1040.6</ele>
        <time>2021-09-12T08:58:35Z</time>
      </trkpt>
      <trkpt lat="43.73657" lon="6.61232">
        <ele>1043.6</ele>
        <time>2021-09-12T08:58:57Z</time>
      </trkpt>
      <trkpt lat="43.73666" lon="6.61221">
        <ele>1045</ele>
        <time>2021-09-12T08:59:13Z</time>
      </trkpt>
      <trkpt lat="43.73677" lon="6.61202">
        <ele>1048</ele>
        <time>2021-09-12T08:59:34Z</time>
      </trkpt>
      <trkpt lat="43.73681" lon="6.61191">
        <ele>1048.9</ele>
        <time>2021-09-12T08:59:52Z</time>
      </trkpt>
      <trkpt lat="43.73693" lon="6.61175">
        <ele>1053</ele>
        <time>2021-09-12T09:00:09Z</time>
      </trkpt>
      <trkpt lat="43.73703" lon="6.61167">
        <ele>1056.3</ele>
        <time>2021-09-12T09:00:26Z</time>
      </trkpt>
      <trkpt lat="43.73705" lon="6.61155">
        <ele>1056.7</ele>
        <time>2021-09-12T09:00:41Z</time>
      </trkpt>
      <trkpt lat="43.73708" lon="6.61148">
        <ele>1057.6</ele>
        <time>2021-09-12T09:00:58Z</time>
      </trkpt>
      <trkpt lat="43.73717" lon="6.61142">
        <ele>1061.2</ele>
        <time>2021-09-12T09:01:16Z</time>
      </trkpt>
      <trkpt lat="43.73728" lon="6.61148">
        <ele>1065.8</ele>
        <time>2021-09-12T09:01:33Z</time>
      </trkpt>
      <trkpt lat="43.73735" lon="6.61142">
        <ele>1068.3</ele>
        <time>2021-09-12T09:01:50Z</time>
      </trkpt>
      <trkpt lat="43.7374" lon="6.61136">
        <ele>1070.2</ele>
        <time>2021-09-12T09:02:10Z</time>
      </trkpt>
      <trkpt lat="43.73744" lon="6.61141">
        <ele>1072.1</ele>
        <time>2021-09-12T09:02:24Z</time>
      </trkpt>
      <trkpt lat="43.73751" lon="6.61141">
        <ele>1075.1</ele>
        <time>2021-09-12T09:02:41Z</time>
      </trkpt>
      <trkpt lat="43.73757" lon="6.61129">
        <ele>1078.5</ele>
        <time>2021-09-12T09:03:01Z</time>
      </trkpt>
      <trkpt lat="43.73764" lon="6.61118">
        <ele>1082.2</ele>
        <time>2021-09-12T09:03:21Z</time>
      </trkpt>
      <trkpt lat="43.73769" lon="6.6111">
        <ele>1084.9</ele>
        <time>2021-09-12T09:03:38Z</time>
      </trkpt>
      <trkpt lat="43.73774" lon="6.61096">
        <ele>1087.7</ele>
        <time>2021-09-12T09:03:57Z</time>
      </trkpt>
      <trkpt lat="43.73776" lon="6.61075">
        <ele>1088.5</ele>
        <time>2021-09-12T09:04:17Z</time>
      </trkpt>
      <trkpt lat="43.73776" lon="6.61055">
        <ele>1088.2</ele>
        <time>2021-09-12T09:04:33Z</time>
      </trkpt>
      <trkpt lat="43.73778" lon="6.61038">
        <ele>1089.5</ele>
        <time>2021-09-12T09:04:51Z</time>
      </trkpt>
      <trkpt lat="43.73779" lon="6.61025">
        <ele>1090</ele>
        <time>2021-09-12T09:05:08Z</time>
      </trkpt>
      <trkpt lat="43.73781" lon="6.61012">
        <ele>1090.7</ele>
        <time>2021-09-12T09:05:23Z</time>
      </trkpt>
      <trkpt lat="43.73784" lon="6.60997">
        <ele>1092.5</ele>
        <time>2021-09-12T09:05:40Z</time>
      </trkpt>
      <trkpt lat="43.73791" lon="6.60987">
        <ele>1096.7</ele>
        <time>2021-09-12T09:05:58Z</time>
      </trkpt>
      <trkpt lat="43.73793" lon="6.60971">
        <ele>1098.2</ele>
        <time>2021-09-12T09:06:17Z</time>
      </trkpt>
      <trkpt lat="43.73799" lon="6.60957">
        <ele>1101.9</ele>
        <time>2021-09-12T09:06:36Z</time>
      </trkpt>
      <trkpt lat="43.73803" lon="6.6094">
        <ele>1104.6</ele>
        <time>2021-09-12T09:06:54Z</time>
      </trkpt>
      <trkpt lat="43.73805" lon="6.60921">
        <ele>1105.6</ele>
        <time>2021-09-12T09:07:12Z</time>
      </trkpt>
      <trkpt lat="43.73807" lon="6.60909">
        <ele>1106.4</ele>
        <time>2021-09-12T09:07:26Z</time>
      </trkpt>
      <trkpt lat="43.73812" lon="6.60894">
        <ele>1109.3</ele>
        <time>2021-09-12T09:07:44Z</time>
      </trkpt>
      <trkpt lat="43.73814" lon="6.60876">
        <ele>1109.4</ele>
        <time>2021-09-12T09:08:01Z</time>
      </trkpt>
      <trkpt lat="43.73817" lon="6.60857">
        <ele>1110.4</ele>
        <time>2021-09-12T09:08:19Z</time>
      </trkpt>
      <trkpt lat="43.73823" lon="6.60844">
        <ele>1113.2</ele>
        <time>2021-09-12T09:08:38Z</time>
      </trkpt>
      <trkpt lat="43.73829" lon="6.60832">
        <ele>1115.4</ele>
        <time>2021-09-12T09:08:58Z</time>
      </trkpt>
      <trkpt lat="43.73835" lon="6.60828">
        <ele>1118.7</ele>
        <time>2021-09-12T09:09:14Z</time>
      </trkpt>
      <trkpt lat="43.73839" lon="6.60838">
        <ele>1121.8</ele>
        <time>2021-09-12T09:09:32Z</time>
      </trkpt>
      <trkpt lat="43.73844" lon="6.60847">
        <ele>1125.2</ele>
        <time>2021-09-12T09:09:51Z</time>
      </trkpt>
      <trkpt lat="43.73844" lon="6.60844">
        <ele>1125.2</ele>
        <time>2021-09-12T09:10:19Z</time>
      </trkpt>
      <trkpt lat="43.73841" lon="6.60847">
        <ele>1123.2</ele>
        <time>2021-09-12T09:10:53Z</time>
      </trkpt>
      <trkpt lat="43.73842" lon="6.60847">
        <ele>1124.1</ele>
        <time>2021-09-12T09:11:23Z</time>
      </trkpt>
      <trkpt lat="43.73844" lon="6.60845">
        <ele>1124.9</ele>
        <time>2021-09-12T09:11:54Z</time>
      </trkpt>
      <trkpt lat="43.73844" lon="6.60845">
        <ele>1124.9</ele>
        <time>2021-09-12T09:12:22Z</time>
      </trkpt>
      <trkpt lat="43.73846" lon="6.60844">
        <ele>1125.9</ele>
        <time>2021-09-12T09:12:48Z</time>
      </trkpt>
      <trkpt lat="43.73845" lon="6.60845">
        <ele>1125.8</ele>
        <time>2021-09-12T09:13:21Z</time>
      </trkpt>
      <trkpt lat="43.73844" lon="6.60842">
        <ele>1125.1</ele>
        <time>2021-09-12T09:13:49Z</time>
      </trkpt>
      <trkpt lat="43.73849" lon="6.60828">
        <ele>1126.7</ele>
        <time>2021-09-12T09:14:07Z</time>
      </trkpt>
      <trkpt lat="43.73854" lon="6.60815">
        <ele>1129.4</ele>
        <time>2021-09-12T09:14:26Z</time>
      </trkpt>
      <trkpt lat="43.7386" lon="6.60823">
        <ele>1133.2</ele>
        <time>2021-09-12T09:14:42Z</time>
      </trkpt>
      <trkpt lat="43.73865" lon="6.60834">
        <ele>1136.3</ele>
        <time>2021-09-12T09:15:03Z</time>
      </trkpt>
      <trkpt lat="43.73871" lon="6.60824">
        <ele>1139.3</ele>
        <time>2021-09-12T09:15:23Z</time>
      </trkpt>
      <trkpt lat="43.73876" lon="6.60812">
        <ele>1142.4</ele>
        <time>2021-09-12T09:15:44Z</time>
      </trkpt>
      <trkpt lat="43.73883" lon="6.60802">
        <ele>1145.8</ele>
        <time>2021-09-12T09:16:03Z</time>
      </trkpt>
      <trkpt lat="43.73889" lon="6.60793">
        <ele>1149.1</ele>
        <time>2021-09-12T09:16:21Z</time>
      </trkpt>
      <trkpt lat="43.73897" lon="6.60791">
        <ele>1153.9</ele>
        <time>2021-09-12T09:16:42Z</time>
      </trkpt>
      <trkpt lat="43.73898" lon="6.60807">
        <ele>1154.7</ele>
        <time>2021-09-12T09:17:04Z</time>
      </trkpt>
      <trkpt lat="43.73898" lon="6.60809">
        <ele>1154.7</ele>
        <time>2021-09-12T09:17:05Z</time>
      </trkpt>
      <trkpt lat="43.73897" lon="6.60824">
        <ele>1154.7</ele>
        <time>2021-09-12T09:17:23Z</time>
      </trkpt>
      <trkpt lat="43.73898" lon="6.60839">
        <ele>1156.1</ele>
        <time>2021-09-12T09:17:40Z</time>
      </trkpt>
      <trkpt lat="43.73899" lon="6.60859">
        <ele>1158.4</ele>
        <time>2021-09-12T09:18:02Z</time>
      </trkpt>
      <trkpt lat="43.73901" lon="6.60877">
        <ele>1161.6</ele>
        <time>2021-09-12T09:18:23Z</time>
      </trkpt>
      <trkpt lat="43.73905" lon="6.60892">
        <ele>1166.1</ele>
        <time>2021-09-12T09:18:47Z</time>
      </trkpt>
      <trkpt lat="43.73908" lon="6.60907">
        <ele>1169.3</ele>
        <time>2021-09-12T09:19:08Z</time>
      </trkpt>
      <trkpt lat="43.73911" lon="6.60906">
        <ele>1171.1</ele>
        <time>2021-09-12T09:19:23Z</time>
      </trkpt>
      <trkpt lat="43.73916" lon="6.60893">
        <ele>1172.8</ele>
        <time>2021-09-12T09:19:45Z</time>
      </trkpt>
      <trkpt lat="43.73922" lon="6.609">
        <ele>1177.5</ele>
        <time>2021-09-12T09:20:03Z</time>
      </trkpt>
      <trkpt lat="43.73923" lon="6.60901">
        <ele>1178.4</ele>
        <time>2021-09-12T09:20:21Z</time>
      </trkpt>
      <trkpt lat="43.73929" lon="6.60888">
        <ele>1180.3</ele>
        <time>2021-09-12T09:20:39Z</time>
      </trkpt>
      <trkpt lat="43.73933" lon="6.6089">
        <ele>1183.1</ele>
        <time>2021-09-12T09:20:54Z</time>
      </trkpt>
      <trkpt lat="43.73935" lon="6.60898">
        <ele>1185.6</ele>
        <time>2021-09-12T09:21:05Z</time>
      </trkpt>
      <trkpt lat="43.7394" lon="6.60909">
        <ele>1190.7</ele>
        <time>2021-09-12T09:21:22Z</time>
      </trkpt>
      <trkpt lat="43.73943" lon="6.60901">
        <ele>1191.7</ele>
        <time>2021-09-12T09:21:39Z</time>
      </trkpt>
      <trkpt lat="43.7395" lon="6.60889">
        <ele>1194</ele>
        <time>2021-09-12T09:21:59Z</time>
      </trkpt>
      <trkpt lat="43.73957" lon="6.60877">
        <ele>1196.8</ele>
        <time>2021-09-12T09:22:19Z</time>
      </trkpt>
      <trkpt lat="43.7396" lon="6.60866">
        <ele>1196.8</ele>
        <time>2021-09-12T09:22:39Z</time>
      </trkpt>
      <trkpt lat="43.73963" lon="6.6086">
        <ele>1198.3</ele>
        <time>2021-09-12T09:22:56Z</time>
      </trkpt>
      <trkpt lat="43.73971" lon="6.60853">
        <ele>1201.8</ele>
        <time>2021-09-12T09:23:16Z</time>
      </trkpt>
      <trkpt lat="43.73975" lon="6.60862">
        <ele>1205.7</ele>
        <time>2021-09-12T09:23:31Z</time>
      </trkpt>
      <trkpt lat="43.73976" lon="6.60875">
        <ele>1208.8</ele>
        <time>2021-09-12T09:23:51Z</time>
      </trkpt>
      <trkpt lat="43.73981" lon="6.60871">
        <ele>1211</ele>
        <time>2021-09-12T09:24:06Z</time>
      </trkpt>
      <trkpt lat="43.73986" lon="6.60857">
        <ele>1212.1</ele>
        <time>2021-09-12T09:24:30Z</time>
      </trkpt>
      <trkpt lat="43.73995" lon="6.60844">
        <ele>1214.8</ele>
        <time>2021-09-12T09:24:49Z</time>
      </trkpt>
      <trkpt lat="43.73999" lon="6.60844">
        <ele>1217.4</ele>
        <time>2021-09-12T09:25:05Z</time>
      </trkpt>
      <trkpt lat="43.74003" lon="6.60847">
        <ele>1220.3</ele>
        <time>2021-09-12T09:25:22Z</time>
      </trkpt>
      <trkpt lat="43.74007" lon="6.60842">
        <ele>1221.6</ele>
        <time>2021-09-12T09:25:34Z</time>
      </trkpt>
      <trkpt lat="43.74013" lon="6.60833">
        <ele>1223.2</ele>
        <time>2021-09-12T09:25:48Z</time>
      </trkpt>
      <trkpt lat="43.74021" lon="6.60823">
        <ele>1227.4</ele>
        <time>2021-09-12T09:26:07Z</time>
      </trkpt>
      <trkpt lat="43.74034" lon="6.60815">
        <ele>1233.9</ele>
        <time>2021-09-12T09:26:29Z</time>
      </trkpt>
      <trkpt lat="43.74041" lon="6.60808">
        <ele>1237.7</ele>
        <time>2021-09-12T09:26:51Z</time>
      </trkpt>
      <trkpt lat="43.74045" lon="6.60803">
        <ele>1239.9</ele>
        <time>2021-09-12T09:27:06Z</time>
      </trkpt>
      <trkpt lat="43.74046" lon="6.608">
        <ele>1239.8</ele>
        <time>2021-09-12T09:27:37Z</time>
      </trkpt>
      <trkpt lat="43.74042" lon="6.60807">
        <ele>1238.3</ele>
        <time>2021-09-12T09:28:03Z</time>
      </trkpt>
      <trkpt lat="43.74037" lon="6.60813">
        <ele>1235.6</ele>
        <time>2021-09-12T09:28:30Z</time>
      </trkpt>
      <trkpt lat="43.74037" lon="6.60813">
        <ele>1235.9</ele>
        <time>2021-09-12T09:29:10Z</time>
      </trkpt>
      <trkpt lat="43.7404" lon="6.60813">
        <ele>1237.3</ele>
        <time>2021-09-12T09:29:33Z</time>
      </trkpt>
      <trkpt lat="43.74039" lon="6.6081">
        <ele>1236.9</ele>
        <time>2021-09-12T09:30:04Z</time>
      </trkpt>
      <trkpt lat="43.7404" lon="6.60812">
        <ele>1237.3</ele>
        <time>2021-09-12T09:30:39Z</time>
      </trkpt>
      <trkpt lat="43.74039" lon="6.60807">
        <ele>1236.8</ele>
        <time>2021-09-12T09:31:03Z</time>
      </trkpt>
      <trkpt lat="43.74041" lon="6.6081">
        <ele>1237.6</ele>
        <time>2021-09-12T09:31:34Z</time>
      </trkpt>
      <trkpt lat="43.74042" lon="6.60817">
        <ele>1238.8</ele>
        <time>2021-09-12T09:32:27Z</time>
      </trkpt>
      <trkpt lat="43.7404" lon="6.60806">
        <ele>1237.2</ele>
        <time>2021-09-12T09:33:10Z</time>
      </trkpt>
      <trkpt lat="43.74049" lon="6.60787">
        <ele>1241</ele>
        <time>2021-09-12T09:33:32Z</time>
      </trkpt>
      <trkpt lat="43.74049" lon="6.60781">
        <ele>1241</ele>
        <time>2021-09-12T09:33:46Z</time>
      </trkpt>
      <trkpt lat="43.74053" lon="6.6079">
        <ele>1243.5</ele>
        <time>2021-09-12T09:33:57Z</time>
      </trkpt>
      <trkpt lat="43.74059" lon="6.60799">
        <ele>1247.3</ele>
        <time>2021-09-12T09:34:11Z</time>
      </trkpt>
      <trkpt lat="43.7406" lon="6.60816">
        <ele>1249</ele>
        <time>2021-09-12T09:34:30Z</time>
      </trkpt>
      <trkpt lat="43.74059" lon="6.60822">
        <ele>1248.8</ele>
        <time>2021-09-12T09:34:37Z</time>
      </trkpt>
      <trkpt lat="43.74067" lon="6.60812">
        <ele>1252.6</ele>
        <time>2021-09-12T09:34:58Z</time>
      </trkpt>
      <trkpt lat="43.7407" lon="6.60805">
        <ele>1253.9</ele>
        <time>2021-09-12T09:35:16Z</time>
      </trkpt>
      <trkpt lat="43.74072" lon="6.60813">
        <ele>1255.2</ele>
        <time>2021-09-12T09:35:28Z</time>
      </trkpt>
      <trkpt lat="43.74075" lon="6.60818">
        <ele>1257.5</ele>
        <time>2021-09-12T09:35:46Z</time>
      </trkpt>
      <trkpt lat="43.74081" lon="6.60811">
        <ele>1260.5</ele>
        <time>2021-09-12T09:36:06Z</time>
      </trkpt>
      <trkpt lat="43.74083" lon="6.60815">
        <ele>1261.5</ele>
        <time>2021-09-12T09:36:20Z</time>
      </trkpt>
      <trkpt lat="43.74087" lon="6.60809">
        <ele>1263.8</ele>
        <time>2021-09-12T09:36:40Z</time>
      </trkpt>
      <trkpt lat="43.74091" lon="6.60795">
        <ele>1265</ele>
        <time>2021-09-12T09:36:59Z</time>
      </trkpt>
      <trkpt lat="43.74097" lon="6.60783">
        <ele>1267.7</ele>
        <time>2021-09-12T09:37:18Z</time>
      </trkpt>
      <trkpt lat="43.74102" lon="6.60768">
        <ele>1269.8</ele>
        <time>2021-09-12T09:37:39Z</time>
      </trkpt>
      <trkpt lat="43.74109" lon="6.60758">
        <ele>1273.1</ele>
        <time>2021-09-12T09:37:59Z</time>
      </trkpt>
      <trkpt lat="43.74111" lon="6.60746">
        <ele>1274.2</ele>
        <time>2021-09-12T09:38:19Z</time>
      </trkpt>
      <trkpt lat="43.74114" lon="6.60741">
        <ele>1276</ele>
        <time>2021-09-12T09:38:36Z</time>
      </trkpt>
      <trkpt lat="43.74118" lon="6.60754">
        <ele>1278.2</ele>
        <time>2021-09-12T09:38:59Z</time>
      </trkpt>
      <trkpt lat="43.74125" lon="6.60768">
        <ele>1282.8</ele>
        <time>2021-09-12T09:39:21Z</time>
      </trkpt>
      <trkpt lat="43.7413" lon="6.60782">
        <ele>1286.5</ele>
        <time>2021-09-12T09:39:41Z</time>
      </trkpt>
      <trkpt lat="43.74132" lon="6.60789">
        <ele>1288</ele>
        <time>2021-09-12T09:39:52Z</time>
      </trkpt>
      <trkpt lat="43.74137" lon="6.6078">
        <ele>1290.7</ele>
        <time>2021-09-12T09:40:08Z</time>
      </trkpt>
      <trkpt lat="43.74141" lon="6.6077">
        <ele>1292.5</ele>
        <time>2021-09-12T09:40:27Z</time>
      </trkpt>
      <trkpt lat="43.74143" lon="6.60781">
        <ele>1293.8</ele>
        <time>2021-09-12T09:40:48Z</time>
      </trkpt>
      <trkpt lat="43.74149" lon="6.60792">
        <ele>1298</ele>
        <time>2021-09-12T09:41:07Z</time>
      </trkpt>
      <trkpt lat="43.74156" lon="6.60815">
        <ele>1303</ele>
        <time>2021-09-12T09:41:35Z</time>
      </trkpt>
      <trkpt lat="43.74159" lon="6.60825">
        <ele>1305.3</ele>
        <time>2021-09-12T09:41:50Z</time>
      </trkpt>
      <trkpt lat="43.74163" lon="6.60825">
        <ele>1307.4</ele>
        <time>2021-09-12T09:42:07Z</time>
      </trkpt>
      <trkpt lat="43.74167" lon="6.60813">
        <ele>1309.3</ele>
        <time>2021-09-12T09:42:24Z</time>
      </trkpt>
      <trkpt lat="43.74171" lon="6.60797">
        <ele>1311.2</ele>
        <time>2021-09-12T09:42:44Z</time>
      </trkpt>
      <trkpt lat="43.74175" lon="6.60787">
        <ele>1313</ele>
        <time>2021-09-12T09:43:02Z</time>
      </trkpt>
      <trkpt lat="43.74178" lon="6.60768">
        <ele>1314.4</ele>
        <time>2021-09-12T09:43:25Z</time>
      </trkpt>
      <trkpt lat="43.74183" lon="6.60766">
        <ele>1317.4</ele>
        <time>2021-09-12T09:43:39Z</time>
      </trkpt>
      <trkpt lat="43.74187" lon="6.60769">
        <ele>1320.2</ele>
        <time>2021-09-12T09:43:57Z</time>
      </trkpt>
      <trkpt lat="43.7419" lon="6.60753">
        <ele>1320.9</ele>
        <time>2021-09-12T09:44:18Z</time>
      </trkpt>
      <trkpt lat="43.74192" lon="6.60738">
        <ele>1323.1</ele>
        <time>2021-09-12T09:44:39Z</time>
      </trkpt>
      <trkpt lat="43.74194" lon="6.60734">
        <ele>1325.2</ele>
        <time>2021-09-12T09:44:59Z</time>
      </trkpt>
      <trkpt lat="43.74202" lon="6.60752">
        <ele>1328.9</ele>
        <time>2021-09-12T09:45:24Z</time>
      </trkpt>
      <trkpt lat="43.74206" lon="6.60766">
        <ele>1332.1</ele>
        <time>2021-09-12T09:45:44Z</time>
      </trkpt>
      <trkpt lat="43.74211" lon="6.60765">
        <ele>1335</ele>
        <time>2021-09-12T09:46:01Z</time>
      </trkpt>
      <trkpt lat="43.74216" lon="6.60766">
        <ele>1338.3</ele>
        <time>2021-09-12T09:46:18Z</time>
      </trkpt>
      <trkpt lat="43.74219" lon="6.60753">
        <ele>1340.1</ele>
        <time>2021-09-12T09:46:39Z</time>
      </trkpt>
      <trkpt lat="43.7422" lon="6.60741">
        <ele>1341.2</ele>
        <time>2021-09-12T09:46:59Z</time>
      </trkpt>
      <trkpt lat="43.74224" lon="6.60724">
        <ele>1344.9</ele>
        <time>2021-09-12T09:47:18Z</time>
      </trkpt>
      <trkpt lat="43.74225" lon="6.6071">
        <ele>1345.7</ele>
        <time>2021-09-12T09:47:38Z</time>
      </trkpt>
      <trkpt lat="43.74225" lon="6.60695">
        <ele>1347</ele>
        <time>2021-09-12T09:47:57Z</time>
      </trkpt>
      <trkpt lat="43.74228" lon="6.60674">
        <ele>1349.5</ele>
        <time>2021-09-12T09:48:21Z</time>
      </trkpt>
      <trkpt lat="43.74229" lon="6.60659">
        <ele>1350.9</ele>
        <time>2021-09-12T09:48:40Z</time>
      </trkpt>
      <trkpt lat="43.7423" lon="6.60641">
        <ele>1351.5</ele>
        <time>2021-09-12T09:48:59Z</time>
      </trkpt>
      <trkpt lat="43.74232" lon="6.60622">
        <ele>1352.5</ele>
        <time>2021-09-12T09:49:20Z</time>
      </trkpt>
      <trkpt lat="43.74233" lon="6.60611">
        <ele>1352.9</ele>
        <time>2021-09-12T09:49:36Z</time>
      </trkpt>
      <trkpt lat="43.74237" lon="6.60622">
        <ele>1355.7</ele>
        <time>2021-09-12T09:49:57Z</time>
      </trkpt>
      <trkpt lat="43.74243" lon="6.60625">
        <ele>1359.4</ele>
        <time>2021-09-12T09:50:18Z</time>
      </trkpt>
      <trkpt lat="43.74243" lon="6.60623">
        <ele>1359.2</ele>
        <time>2021-09-12T09:50:51Z</time>
      </trkpt>
      <trkpt lat="43.74243" lon="6.60623">
        <ele>1359.5</ele>
        <time>2021-09-12T09:51:29Z</time>
      </trkpt>
      <trkpt lat="43.74244" lon="6.60625">
        <ele>1360</ele>
        <time>2021-09-12T09:51:40Z</time>
      </trkpt>
      <trkpt lat="43.74242" lon="6.60623">
        <ele>1358.6</ele>
        <time>2021-09-12T09:52:26Z</time>
      </trkpt>
      <trkpt lat="43.74244" lon="6.60622">
        <ele>1359.6</ele>
        <time>2021-09-12T09:53:07Z</time>
      </trkpt>
      <trkpt lat="43.74243" lon="6.60623">
        <ele>1359.5</ele>
        <time>2021-09-12T09:53:45Z</time>
      </trkpt>
      <trkpt lat="43.74243" lon="6.60624">
        <ele>1359.4</ele>
        <time>2021-09-12T09:54:19Z</time>
      </trkpt>
      <trkpt lat="43.74242" lon="6.60624">
        <ele>1358.8</ele>
        <time>2021-09-12T09:54:47Z</time>
      </trkpt>
      <trkpt lat="43.74241" lon="6.60624">
        <ele>1358</ele>
        <time>2021-09-12T09:55:41Z</time>
      </trkpt>
      <trkpt lat="43.7424" lon="6.60623">
        <ele>1357.3</ele>
        <time>2021-09-12T09:56:16Z</time>
      </trkpt>
      <trkpt lat="43.74242" lon="6.6062">
        <ele>1358.8</ele>
        <time>2021-09-12T09:56:46Z</time>
      </trkpt>
      <trkpt lat="43.74243" lon="6.60621">
        <ele>1359.1</ele>
        <time>2021-09-12T09:57:24Z</time>
      </trkpt>
      <trkpt lat="43.74244" lon="6.60618">
        <ele>1360</ele>
        <time>2021-09-12T09:57:53Z</time>
      </trkpt>
      <trkpt lat="43.74247" lon="6.60604">
        <ele>1361.7</ele>
        <time>2021-09-12T09:58:11Z</time>
      </trkpt>
      <trkpt lat="43.74251" lon="6.60588">
        <ele>1364.6</ele>
        <time>2021-09-12T09:58:34Z</time>
      </trkpt>
      <trkpt lat="43.74255" lon="6.60568">
        <ele>1366</ele>
        <time>2021-09-12T09:58:55Z</time>
      </trkpt>
      <trkpt lat="43.74262" lon="6.60555">
        <ele>1369.1</ele>
        <time>2021-09-12T09:59:15Z</time>
      </trkpt>
      <trkpt lat="43.74268" lon="6.6054">
        <ele>1371.7</ele>
        <time>2021-09-12T09:59:36Z</time>
      </trkpt>
      <trkpt lat="43.74274" lon="6.6053">
        <ele>1374.2</ele>
        <time>2021-09-12T09:59:54Z</time>
      </trkpt>
      <trkpt lat="43.74283" lon="6.60513">
        <ele>1378</ele>
        <time>2021-09-12T10:00:19Z</time>
      </trkpt>
      <trkpt lat="43.74287" lon="6.60504">
        <ele>1379.6</ele>
        <time>2021-09-12T10:00:37Z</time>
      </trkpt>
      <trkpt lat="43.74289" lon="6.6052">
        <ele>1381.4</ele>
        <time>2021-09-12T10:00:56Z</time>
      </trkpt>
      <trkpt lat="43.74291" lon="6.6053">
        <ele>1382.9</ele>
        <time>2021-09-12T10:01:13Z</time>
      </trkpt>
      <trkpt lat="43.74296" lon="6.60522">
        <ele>1385</ele>
        <time>2021-09-12T10:01:31Z</time>
      </trkpt>
      <trkpt lat="43.74299" lon="6.60517">
        <ele>1386.7</ele>
        <time>2021-09-12T10:01:51Z</time>
      </trkpt>
      <trkpt lat="43.74302" lon="6.60518">
        <ele>1388.3</ele>
        <time>2021-09-12T10:02:06Z</time>
      </trkpt>
      <trkpt lat="43.74308" lon="6.6051">
        <ele>1390.7</ele>
        <time>2021-09-12T10:02:23Z</time>
      </trkpt>
      <trkpt lat="43.74319" lon="6.60496">
        <ele>1395.2</ele>
        <time>2021-09-12T10:02:47Z</time>
      </trkpt>
      <trkpt lat="43.74325" lon="6.60493">
        <ele>1398.3</ele>
        <time>2021-09-12T10:03:05Z</time>
      </trkpt>
      <trkpt lat="43.74326" lon="6.60508">
        <ele>1399.6</ele>
        <time>2021-09-12T10:03:25Z</time>
      </trkpt>
      <trkpt lat="43.74332" lon="6.60504">
        <ele>1402.5</ele>
        <time>2021-09-12T10:03:41Z</time>
      </trkpt>
      <trkpt lat="43.74341" lon="6.60497">
        <ele>1405.5</ele>
        <time>2021-09-12T10:03:57Z</time>
      </trkpt>
      <trkpt lat="43.74352" lon="6.60484">
        <ele>1408.3</ele>
        <time>2021-09-12T10:04:16Z</time>
      </trkpt>
      <trkpt lat="43.7436" lon="6.60474">
        <ele>1410.4</ele>
        <time>2021-09-12T10:04:31Z</time>
      </trkpt>
      <trkpt lat="43.74365" lon="6.60462">
        <ele>1411.4</ele>
        <time>2021-09-12T10:04:43Z</time>
      </trkpt>
      <trkpt lat="43.74375" lon="6.60449">
        <ele>1413.8</ele>
        <time>2021-09-12T10:04:59Z</time>
      </trkpt>
      <trkpt lat="43.74376" lon="6.60446">
        <ele>1414.2</ele>
        <time>2021-09-12T10:05:02Z</time>
      </trkpt>
      <trkpt lat="43.74384" lon="6.60436">
        <ele>1416.4</ele>
        <time>2021-09-12T10:05:16Z</time>
      </trkpt>
      <trkpt lat="43.74398" lon="6.60422">
        <ele>1420.6</ele>
        <time>2021-09-12T10:05:38Z</time>
      </trkpt>
      <trkpt lat="43.74405" lon="6.60416">
        <ele>1422.8</ele>
        <time>2021-09-12T10:05:58Z</time>
      </trkpt>
      <trkpt lat="43.74407" lon="6.60424">
        <ele>1423.9</ele>
        <time>2021-09-12T10:06:34Z</time>
      </trkpt>
      <trkpt lat="43.74407" lon="6.60418">
        <ele>1423.5</ele>
        <time>2021-09-12T10:07:30Z</time>
      </trkpt>
      <trkpt lat="43.74409" lon="6.60428">
        <ele>1424.6</ele>
        <time>2021-09-12T10:08:05Z</time>
      </trkpt>
      <trkpt lat="43.74406" lon="6.60423">
        <ele>1423.4</ele>
        <time>2021-09-12T10:08:39Z</time>
      </trkpt>
      <trkpt lat="43.74405" lon="6.60429">
        <ele>1423.5</ele>
        <time>2021-09-12T10:08:55Z</time>
      </trkpt>
      <trkpt lat="43.74405" lon="6.60424">
        <ele>1423.3</ele>
        <time>2021-09-12T10:09:14Z</time>
      </trkpt>
      <trkpt lat="43.74405" lon="6.60427">
        <ele>1423.4</ele>
        <time>2021-09-12T10:09:57Z</time>
      </trkpt>
      <trkpt lat="43.74406" lon="6.60434">
        <ele>1424.1</ele>
        <time>2021-09-12T10:10:16Z</time>
      </trkpt>
      <trkpt lat="43.74404" lon="6.60434">
        <ele>1423.5</ele>
        <time>2021-09-12T10:10:45Z</time>
      </trkpt>
      <trkpt lat="43.74405" lon="6.6044">
        <ele>1424.2</ele>
        <time>2021-09-12T10:11:21Z</time>
      </trkpt>
      <trkpt lat="43.74401" lon="6.60453">
        <ele>1423.3</ele>
        <time>2021-09-12T10:11:37Z</time>
      </trkpt>
      <trkpt lat="43.74399" lon="6.60462">
        <ele>1423.1</ele>
        <time>2021-09-12T10:11:46Z</time>
      </trkpt>
      <trkpt lat="43.74395" lon="6.60477">
        <ele>1422.3</ele>
        <time>2021-09-12T10:12:05Z</time>
      </trkpt>
      <trkpt lat="43.74396" lon="6.60475">
        <ele>1422.6</ele>
        <time>2021-09-12T10:12:25Z</time>
      </trkpt>
      <trkpt lat="43.74398" lon="6.60469">
        <ele>1423.1</ele>
        <time>2021-09-12T10:12:31Z</time>
      </trkpt>
      <trkpt lat="43.74401" lon="6.60474">
        <ele>1424.3</ele>
        <time>2021-09-12T10:12:57Z</time>
      </trkpt>
      <trkpt lat="43.74398" lon="6.60485">
        <ele>1424.1</ele>
        <time>2021-09-12T10:13:15Z</time>
      </trkpt>
      <trkpt lat="43.744" lon="6.6049">
        <ele>1424.9</ele>
        <time>2021-09-12T10:13:41Z</time>
      </trkpt>
      <trkpt lat="43.74407" lon="6.60494">
        <ele>1427.4</ele>
        <time>2021-09-12T10:14:05Z</time>
      </trkpt>
      <trkpt lat="43.74409" lon="6.60507">
        <ele>1429.2</ele>
        <time>2021-09-12T10:14:27Z</time>
      </trkpt>
      <trkpt lat="43.74415" lon="6.60513">
        <ele>1431.7</ele>
        <time>2021-09-12T10:14:41Z</time>
      </trkpt>
      <trkpt lat="43.74415" lon="6.60525">
        <ele>1432.9</ele>
        <time>2021-09-12T10:14:53Z</time>
      </trkpt>
      <trkpt lat="43.74418" lon="6.6053">
        <ele>1434.2</ele>
        <time>2021-09-12T10:15:03Z</time>
      </trkpt>
      <trkpt lat="43.7442" lon="6.60536">
        <ele>1435.1</ele>
        <time>2021-09-12T10:15:34Z</time>
      </trkpt>
      <trkpt lat="43.7442" lon="6.60538">
        <ele>1435.3</ele>
        <time>2021-09-12T10:15:41Z</time>
      </trkpt>
      <trkpt lat="43.74419" lon="6.60544">
        <ele>1435.7</ele>
        <time>2021-09-12T10:15:52Z</time>
      </trkpt>
      <trkpt lat="43.74417" lon="6.6055">
        <ele>1435.9</ele>
        <time>2021-09-12T10:16:23Z</time>
      </trkpt>
      <trkpt lat="43.74414" lon="6.60555">
        <ele>1435.3</ele>
        <time>2021-09-12T10:16:35Z</time>
      </trkpt>
      <trkpt lat="43.74414" lon="6.60558">
        <ele>1435.6</ele>
        <time>2021-09-12T10:16:38Z</time>
      </trkpt>
      <trkpt lat="43.74417" lon="6.60557">
        <ele>1436.6</ele>
        <time>2021-09-12T10:16:50Z</time>
      </trkpt>
      <trkpt lat="43.74422" lon="6.60564">
        <ele>1438.4</ele>
        <time>2021-09-12T10:17:03Z</time>
      </trkpt>
      <trkpt lat="43.74423" lon="6.60576">
        <ele>1439.6</ele>
        <time>2021-09-12T10:17:14Z</time>
      </trkpt>
      <trkpt lat="43.74424" lon="6.6058">
        <ele>1440.3</ele>
        <time>2021-09-12T10:17:19Z</time>
      </trkpt>
      <trkpt lat="43.74422" lon="6.60593">
        <ele>1441.2</ele>
        <time>2021-09-12T10:17:30Z</time>
      </trkpt>
      <trkpt lat="43.74421" lon="6.60598">
        <ele>1441.2</ele>
        <time>2021-09-12T10:17:38Z</time>
      </trkpt>
      <trkpt lat="43.74422" lon="6.60604">
        <ele>1442.1</ele>
        <time>2021-09-12T10:17:52Z</time>
      </trkpt>
      <trkpt lat="43.74427" lon="6.60607">
        <ele>1443.7</ele>
        <time>2021-09-12T10:18:12Z</time>
      </trkpt>
      <trkpt lat="43.74425" lon="6.60614">
        <ele>1443.8</ele>
        <time>2021-09-12T10:18:29Z</time>
      </trkpt>
      <trkpt lat="43.74425" lon="6.60617">
        <ele>1444</ele>
        <time>2021-09-12T10:18:34Z</time>
      </trkpt>
      <trkpt lat="43.74421" lon="6.60629">
        <ele>1443.9</ele>
        <time>2021-09-12T10:18:49Z</time>
      </trkpt>
      <trkpt lat="43.74418" lon="6.60643">
        <ele>1444.6</ele>
        <time>2021-09-12T10:19:08Z</time>
      </trkpt>
      <trkpt lat="43.74421" lon="6.60652">
        <ele>1446.1</ele>
        <time>2021-09-12T10:19:31Z</time>
      </trkpt>
      <trkpt lat="43.74423" lon="6.6066">
        <ele>1447.7</ele>
        <time>2021-09-12T10:19:51Z</time>
      </trkpt>
      <trkpt lat="43.74425" lon="6.60671">
        <ele>1449.2</ele>
        <time>2021-09-12T10:20:12Z</time>
      </trkpt>
      <trkpt lat="43.74426" lon="6.60676">
        <ele>1450</ele>
        <time>2021-09-12T10:20:32Z</time>
      </trkpt>
      <trkpt lat="43.7443" lon="6.60679">
        <ele>1451.5</ele>
        <time>2021-09-12T10:20:53Z</time>
      </trkpt>
      <trkpt lat="43.74432" lon="6.60684">
        <ele>1452.9</ele>
        <time>2021-09-12T10:21:29Z</time>
      </trkpt>
      <trkpt lat="43.74433" lon="6.60693">
        <ele>1453.9</ele>
        <time>2021-09-12T10:21:50Z</time>
      </trkpt>
      <trkpt lat="43.74431" lon="6.60697">
        <ele>1453.7</ele>
        <time>2021-09-12T10:21:57Z</time>
      </trkpt>
      <trkpt lat="43.74439" lon="6.60701">
        <ele>1456.9</ele>
        <time>2021-09-12T10:22:13Z</time>
      </trkpt>
      <trkpt lat="43.74444" lon="6.60702">
        <ele>1459.1</ele>
        <time>2021-09-12T10:22:34Z</time>
      </trkpt>
      <trkpt lat="43.7445" lon="6.60704">
        <ele>1461.4</ele>
        <time>2021-09-12T10:22:52Z</time>
      </trkpt>
      <trkpt lat="43.74454" lon="6.60704">
        <ele>1462.9</ele>
        <time>2021-09-12T10:23:15Z</time>
      </trkpt>
      <trkpt lat="43.74462" lon="6.60702">
        <ele>1465.5</ele>
        <time>2021-09-12T10:23:34Z</time>
      </trkpt>
      <trkpt lat="43.74467" lon="6.60704">
        <ele>1467.7</ele>
        <time>2021-09-12T10:23:53Z</time>
      </trkpt>
      <trkpt lat="43.74467" lon="6.60712">
        <ele>1468.8</ele>
        <time>2021-09-12T10:24:13Z</time>
      </trkpt>
      <trkpt lat="43.74466" lon="6.60723">
        <ele>1469.6</ele>
        <time>2021-09-12T10:24:32Z</time>
      </trkpt>
      <trkpt lat="43.74468" lon="6.60724">
        <ele>1470.7</ele>
        <time>2021-09-12T10:24:55Z</time>
      </trkpt>
      <trkpt lat="43.74472" lon="6.60728">
        <ele>1472.8</ele>
        <time>2021-09-12T10:25:13Z</time>
      </trkpt>
      <trkpt lat="43.74474" lon="6.60727">
        <ele>1473.5</ele>
        <time>2021-09-12T10:25:38Z</time>
      </trkpt>
      <trkpt lat="43.74475" lon="6.60731">
        <ele>1474.3</ele>
        <time>2021-09-12T10:26:05Z</time>
      </trkpt>
      <trkpt lat="43.74475" lon="6.60738">
        <ele>1475</ele>
        <time>2021-09-12T10:26:22Z</time>
      </trkpt>
      <trkpt lat="43.74475" lon="6.60748">
        <ele>1476.6</ele>
        <time>2021-09-12T10:26:43Z</time>
      </trkpt>
      <trkpt lat="43.74479" lon="6.6075">
        <ele>1478.5</ele>
        <time>2021-09-12T10:27:06Z</time>
      </trkpt>
      <trkpt lat="43.74483" lon="6.60752">
        <ele>1480.2</ele>
        <time>2021-09-12T10:27:35Z</time>
      </trkpt>
      <trkpt lat="43.74487" lon="6.6076">
        <ele>1482.7</ele>
        <time>2021-09-12T10:27:59Z</time>
      </trkpt>
      <trkpt lat="43.74485" lon="6.60761">
        <ele>1482.4</ele>
        <time>2021-09-12T10:28:31Z</time>
      </trkpt>
      <trkpt lat="43.74488" lon="6.60758">
        <ele>1483.2</ele>
        <time>2021-09-12T10:29:13Z</time>
      </trkpt>
      <trkpt lat="43.74488" lon="6.60758">
        <ele>1483.2</ele>
        <time>2021-09-12T10:30:12Z</time>
      </trkpt>
      <trkpt lat="43.7449" lon="6.60764">
        <ele>1484.8</ele>
        <time>2021-09-12T10:30:43Z</time>
      </trkpt>
      <trkpt lat="43.74494" lon="6.6077">
        <ele>1486.9</ele>
        <time>2021-09-12T10:31:00Z</time>
      </trkpt>
      <trkpt lat="43.74495" lon="6.60779">
        <ele>1488.5</ele>
        <time>2021-09-12T10:31:17Z</time>
      </trkpt>
      <trkpt lat="43.745" lon="6.60787">
        <ele>1491.3</ele>
        <time>2021-09-12T10:31:40Z</time>
      </trkpt>
      <trkpt lat="43.74499" lon="6.60799">
        <ele>1492.5</ele>
        <time>2021-09-12T10:32:04Z</time>
      </trkpt>
      <trkpt lat="43.74501" lon="6.60807">
        <ele>1494.2</ele>
        <time>2021-09-12T10:32:20Z</time>
      </trkpt>
      <trkpt lat="43.74501" lon="6.60819">
        <ele>1495.6</ele>
        <time>2021-09-12T10:32:42Z</time>
      </trkpt>
      <trkpt lat="43.74502" lon="6.60833">
        <ele>1497.6</ele>
        <time>2021-09-12T10:33:03Z</time>
      </trkpt>
      <trkpt lat="43.74506" lon="6.60839">
        <ele>1499.4</ele>
        <time>2021-09-12T10:33:20Z</time>
      </trkpt>
      <trkpt lat="43.74508" lon="6.6085">
        <ele>1501.5</ele>
        <time>2021-09-12T10:33:40Z</time>
      </trkpt>
      <trkpt lat="43.74513" lon="6.60861">
        <ele>1504.3</ele>
        <time>2021-09-12T10:34:00Z</time>
      </trkpt>
      <trkpt lat="43.74518" lon="6.60869">
        <ele>1506.9</ele>
        <time>2021-09-12T10:34:19Z</time>
      </trkpt>
      <trkpt lat="43.74518" lon="6.6088">
        <ele>1508.2</ele>
        <time>2021-09-12T10:34:39Z</time>
      </trkpt>
      <trkpt lat="43.74518" lon="6.60893">
        <ele>1509.7</ele>
        <time>2021-09-12T10:34:58Z</time>
      </trkpt>
      <trkpt lat="43.74526" lon="6.60901">
        <ele>1512.8</ele>
        <time>2021-09-12T10:35:18Z</time>
      </trkpt>
      <trkpt lat="43.7453" lon="6.60903">
        <ele>1514.4</ele>
        <time>2021-09-12T10:35:39Z</time>
      </trkpt>
      <trkpt lat="43.74536" lon="6.60905">
        <ele>1516.4</ele>
        <time>2021-09-12T10:36:06Z</time>
      </trkpt>
      <trkpt lat="43.74539" lon="6.60907">
        <ele>1517.6</ele>
        <time>2021-09-12T10:36:26Z</time>
      </trkpt>
      <trkpt lat="43.74544" lon="6.60914">
        <ele>1520.1</ele>
        <time>2021-09-12T10:36:39Z</time>
      </trkpt>
      <trkpt lat="43.74548" lon="6.60928">
        <ele>1522.3</ele>
        <time>2021-09-12T10:36:58Z</time>
      </trkpt>
      <trkpt lat="43.74544" lon="6.60941">
        <ele>1522.6</ele>
        <time>2021-09-12T10:37:15Z</time>
      </trkpt>
      <trkpt lat="43.74543" lon="6.60955">
        <ele>1523.7</ele>
        <time>2021-09-12T10:37:37Z</time>
      </trkpt>
      <trkpt lat="43.74538" lon="6.60964">
        <ele>1522.9</ele>
        <time>2021-09-12T10:38:02Z</time>
      </trkpt>
      <trkpt lat="43.74535" lon="6.60966">
        <ele>1522.4</ele>
        <time>2021-09-12T10:38:29Z</time>
      </trkpt>
      <trkpt lat="43.74529" lon="6.60971">
        <ele>1521</ele>
        <time>2021-09-12T10:38:50Z</time>
      </trkpt>
      <trkpt lat="43.74526" lon="6.60985">
        <ele>1521.7</ele>
        <time>2021-09-12T10:39:11Z</time>
      </trkpt>
      <trkpt lat="43.74528" lon="6.60992">
        <ele>1522.8</ele>
        <time>2021-09-12T10:39:32Z</time>
      </trkpt>
      <trkpt lat="43.74531" lon="6.61004">
        <ele>1524.8</ele>
        <time>2021-09-12T10:40:01Z</time>
      </trkpt>
      <trkpt lat="43.74535" lon="6.61011">
        <ele>1526.3</ele>
        <time>2021-09-12T10:40:22Z</time>
      </trkpt>
      <trkpt lat="43.7453" lon="6.6102">
        <ele>1525.9</ele>
        <time>2021-09-12T10:40:43Z</time>
      </trkpt>
      <trkpt lat="43.74533" lon="6.6103">
        <ele>1527.2</ele>
        <time>2021-09-12T10:41:00Z</time>
      </trkpt>
      <trkpt lat="43.74533" lon="6.61039">
        <ele>1527.9</ele>
        <time>2021-09-12T10:41:23Z</time>
      </trkpt>
      <trkpt lat="43.74535" lon="6.61041">
        <ele>1528.6</ele>
        <time>2021-09-12T10:41:46Z</time>
      </trkpt>
      <trkpt lat="43.74536" lon="6.61052">
        <ele>1529.4</ele>
        <time>2021-09-12T10:42:14Z</time>
      </trkpt>
      <trkpt lat="43.74538" lon="6.61063">
        <ele>1530.7</ele>
        <time>2021-09-12T10:42:32Z</time>
      </trkpt>
      <trkpt lat="43.74552" lon="6.61066">
        <ele>1533.3</ele>
        <time>2021-09-12T10:42:55Z</time>
      </trkpt>
      <trkpt lat="43.74561" lon="6.61068">
        <ele>1535</ele>
        <time>2021-09-12T10:43:12Z</time>
      </trkpt>
      <trkpt lat="43.74569" lon="6.61071">
        <ele>1536.5</ele>
        <time>2021-09-12T10:43:28Z</time>
      </trkpt>
      <trkpt lat="43.7457" lon="6.61079">
        <ele>1536.8</ele>
        <time>2021-09-12T10:43:46Z</time>
      </trkpt>
      <trkpt lat="43.7457" lon="6.61084">
        <ele>1536.8</ele>
        <time>2021-09-12T10:44:06Z</time>
      </trkpt>
      <trkpt lat="43.74572" lon="6.61083">
        <ele>1537.1</ele>
        <time>2021-09-12T10:44:53Z</time>
      </trkpt>
      <trkpt lat="43.74574" lon="6.61081">
        <ele>1537.5</ele>
        <time>2021-09-12T10:45:12Z</time>
      </trkpt>
      <trkpt lat="43.74581" lon="6.61078">
        <ele>1538.6</ele>
        <time>2021-09-12T10:45:37Z</time>
      </trkpt>
      <trkpt lat="43.74586" lon="6.61076">
        <ele>1539.2</ele>
        <time>2021-09-12T10:45:43Z</time>
      </trkpt>
      <trkpt lat="43.74592" lon="6.61069">
        <ele>1539.8</ele>
        <time>2021-09-12T10:45:53Z</time>
      </trkpt>
      <trkpt lat="43.74601" lon="6.61064">
        <ele>1540.8</ele>
        <time>2021-09-12T10:46:10Z</time>
      </trkpt>
      <trkpt lat="43.74612" lon="6.61058">
        <ele>1542.2</ele>
        <time>2021-09-12T10:46:27Z</time>
      </trkpt>
      <trkpt lat="43.74625" lon="6.61047">
        <ele>1544.4</ele>
        <time>2021-09-12T10:46:48Z</time>
      </trkpt>
      <trkpt lat="43.74634" lon="6.61049">
        <ele>1545.3</ele>
        <time>2021-09-12T10:47:05Z</time>
      </trkpt>
      <trkpt lat="43.74644" lon="6.61048">
        <ele>1546.8</ele>
        <time>2021-09-12T10:47:24Z</time>
      </trkpt>
      <trkpt lat="43.74657" lon="6.61046">
        <ele>1548.6</ele>
        <time>2021-09-12T10:47:45Z</time>
      </trkpt>
      <trkpt lat="43.74663" lon="6.61049">
        <ele>1549</ele>
        <time>2021-09-12T10:48:01Z</time>
      </trkpt>
      <trkpt lat="43.74668" lon="6.61048">
        <ele>1549.9</ele>
        <time>2021-09-12T10:48:31Z</time>
      </trkpt>
      <trkpt lat="43.74681" lon="6.6105">
        <ele>1552</ele>
        <time>2021-09-12T10:48:50Z</time>
      </trkpt>
      <trkpt lat="43.74691" lon="6.61046">
        <ele>1554.1</ele>
        <time>2021-09-12T10:49:07Z</time>
      </trkpt>
      <trkpt lat="43.74701" lon="6.61045">
        <ele>1555.9</ele>
        <time>2021-09-12T10:49:24Z</time>
      </trkpt>
      <trkpt lat="43.74707" lon="6.61051">
        <ele>1556.7</ele>
        <time>2021-09-12T10:49:42Z</time>
      </trkpt>
      <trkpt lat="43.7471" lon="6.61054">
        <ele>1557</ele>
        <time>2021-09-12T10:50:00Z</time>
      </trkpt>
      <trkpt lat="43.74721" lon="6.61057">
        <ele>1558.9</ele>
        <time>2021-09-12T10:50:18Z</time>
      </trkpt>
      <trkpt lat="43.74731" lon="6.61061">
        <ele>1560.5</ele>
        <time>2021-09-12T10:50:36Z</time>
      </trkpt>
      <trkpt lat="43.7474" lon="6.61063">
        <ele>1562.3</ele>
        <time>2021-09-12T10:50:54Z</time>
      </trkpt>
      <trkpt lat="43.74749" lon="6.61066">
        <ele>1564</ele>
        <time>2021-09-12T10:51:10Z</time>
      </trkpt>
      <trkpt lat="43.74757" lon="6.61072">
        <ele>1565.4</ele>
        <time>2021-09-12T10:51:29Z</time>
      </trkpt>
      <trkpt lat="43.74767" lon="6.61079">
        <ele>1567.3</ele>
        <time>2021-09-12T10:51:50Z</time>
      </trkpt>
      <trkpt lat="43.74769" lon="6.61079">
        <ele>1567.7</ele>
        <time>2021-09-12T10:53:39Z</time>
      </trkpt>
      <trkpt lat="43.74769" lon="6.61077">
        <ele>1567.7</ele>
        <time>2021-09-12T10:53:46Z</time>
      </trkpt>
      <trkpt lat="43.74773" lon="6.6107">
        <ele>1568.3</ele>
        <time>2021-09-12T10:54:02Z</time>
      </trkpt>
      <trkpt lat="43.74779" lon="6.61074">
        <ele>1569.5</ele>
        <time>2021-09-12T10:54:18Z</time>
      </trkpt>
      <trkpt lat="43.74789" lon="6.61083">
        <ele>1571.9</ele>
        <time>2021-09-12T10:54:56Z</time>
      </trkpt>
      <trkpt lat="43.74794" lon="6.61082">
        <ele>1573</ele>
        <time>2021-09-12T10:55:11Z</time>
      </trkpt>
      <trkpt lat="43.74794" lon="6.61084">
        <ele>1572.8</ele>
        <time>2021-09-12T10:55:24Z</time>
      </trkpt>
      <trkpt lat="43.74795" lon="6.61087">
        <ele>1572.2</ele>
        <time>2021-09-12T10:55:52Z</time>
      </trkpt>
      <trkpt lat="43.74797" lon="6.61091">
        <ele>1571.4</ele>
        <time>2021-09-12T10:56:10Z</time>
      </trkpt>
      <trkpt lat="43.748" lon="6.61097">
        <ele>1570.4</ele>
        <time>2021-09-12T10:56:38Z</time>
      </trkpt>
      <trkpt lat="43.74802" lon="6.61097">
        <ele>1570.9</ele>
        <time>2021-09-12T10:57:31Z</time>
      </trkpt>
      <trkpt lat="43.74803" lon="6.61097">
        <ele>1571.2</ele>
        <time>2021-09-12T10:57:52Z</time>
      </trkpt>
      <trkpt lat="43.74811" lon="6.61097">
        <ele>1572.9</ele>
        <time>2021-09-12T10:58:17Z</time>
      </trkpt>
      <trkpt lat="43.74819" lon="6.611">
        <ele>1573.9</ele>
        <time>2021-09-12T10:58:31Z</time>
      </trkpt>
      <trkpt lat="43.74822" lon="6.61103">
        <ele>1574</ele>
        <time>2021-09-12T10:58:46Z</time>
      </trkpt>
      <trkpt lat="43.74824" lon="6.61105">
        <ele>1574.1</ele>
        <time>2021-09-12T10:59:01Z</time>
      </trkpt>
      <trkpt lat="43.7483" lon="6.6111">
        <ele>1574.4</ele>
        <time>2021-09-12T10:59:17Z</time>
      </trkpt>
      <trkpt lat="43.74837" lon="6.61113">
        <ele>1574.9</ele>
        <time>2021-09-12T10:59:34Z</time>
      </trkpt>
      <trkpt lat="43.74844" lon="6.61114">
        <ele>1575</ele>
        <time>2021-09-12T10:59:53Z</time>
      </trkpt>
      <trkpt lat="43.74848" lon="6.61115">
        <ele>1575</ele>
        <time>2021-09-12T11:00:16Z</time>
      </trkpt>
      <trkpt lat="43.7485" lon="6.61117">
        <ele>1574.8</ele>
        <time>2021-09-12T11:00:32Z</time>
      </trkpt>
      <trkpt lat="43.74854" lon="6.61124">
        <ele>1573.9</ele>
        <time>2021-09-12T11:00:53Z</time>
      </trkpt>
      <trkpt lat="43.74858" lon="6.61127">
        <ele>1573.8</ele>
        <time>2021-09-12T11:01:06Z</time>
      </trkpt>
      <trkpt lat="43.74866" lon="6.6113">
        <ele>1574.1</ele>
        <time>2021-09-12T11:01:20Z</time>
      </trkpt>
      <trkpt lat="43.74866" lon="6.61132">
        <ele>1573.7</ele>
        <time>2021-09-12T11:01:36Z</time>
      </trkpt>
      <trkpt lat="43.74868" lon="6.6113">
        <ele>1574.2</ele>
        <time>2021-09-12T11:01:50Z</time>
      </trkpt>
      <trkpt lat="43.74866" lon="6.61131">
        <ele>1574</ele>
        <time>2021-09-12T11:02:22Z</time>
      </trkpt>
      <trkpt lat="43.74866" lon="6.61129">
        <ele>1574.1</ele>
        <time>2021-09-12T11:02:39Z</time>
      </trkpt>
      <trkpt lat="43.74864" lon="6.6113">
        <ele>1573.9</ele>
        <time>2021-09-12T11:03:06Z</time>
      </trkpt>
      <trkpt lat="43.74868" lon="6.61132">
        <ele>1574</ele>
        <time>2021-09-12T11:03:26Z</time>
      </trkpt>
      <trkpt lat="43.74869" lon="6.61131">
        <ele>1574.2</ele>
        <time>2021-09-12T11:03:48Z</time>
      </trkpt>
      <trkpt lat="43.74861" lon="6.61137">
        <ele>1572.5</ele>
        <time>2021-09-12T11:04:03Z</time>
      </trkpt>
      <trkpt lat="43.74854" lon="6.61135">
        <ele>1572.1</ele>
        <time>2021-09-12T11:05:01Z</time>
      </trkpt>
      <trkpt lat="43.74853" lon="6.61134">
        <ele>1572.2</ele>
        <time>2021-09-12T11:05:42Z</time>
      </trkpt>
      <trkpt lat="43.74855" lon="6.61137">
        <ele>1571.8</ele>
        <time>2021-09-12T11:09:33Z</time>
      </trkpt>
      <trkpt lat="43.7486" lon="6.61136">
        <ele>1572.5</ele>
        <time>2021-09-12T11:21:28Z</time>
      </trkpt>
      <trkpt lat="43.74861" lon="6.61134">
        <ele>1573</ele>
        <time>2021-09-12T12:06:23Z</time>
      </trkpt>
      <trkpt lat="43.74869" lon="6.61133">
        <ele>1573.9</ele>
        <time>2021-09-12T12:06:37Z</time>
      </trkpt>
      <trkpt lat="43.74875" lon="6.61133">
        <ele>1574.5</ele>
        <time>2021-09-12T12:08:13Z</time>
      </trkpt>
      <trkpt lat="43.74866" lon="6.61131">
        <ele>1573.9</ele>
        <time>2021-09-12T12:08:28Z</time>
      </trkpt>
      <trkpt lat="43.74863" lon="6.61131">
        <ele>1573.5</ele>
        <time>2021-09-12T12:08:37Z</time>
      </trkpt>
      <trkpt lat="43.7486" lon="6.61129">
        <ele>1573.6</ele>
        <time>2021-09-12T12:08:50Z</time>
      </trkpt>
      <trkpt lat="43.74858" lon="6.61129">
        <ele>1573.5</ele>
        <time>2021-09-12T12:10:52Z</time>
      </trkpt>
      <trkpt lat="43.74853" lon="6.61124">
        <ele>1573.8</ele>
        <time>2021-09-12T12:11:39Z</time>
      </trkpt>
      <trkpt lat="43.7485" lon="6.61117">
        <ele>1574.7</ele>
        <time>2021-09-12T12:11:54Z</time>
      </trkpt>
      <trkpt lat="43.74845" lon="6.61117">
        <ele>1574.5</ele>
        <time>2021-09-12T12:12:06Z</time>
      </trkpt>
      <trkpt lat="43.74842" lon="6.61116">
        <ele>1574.4</ele>
        <time>2021-09-12T12:12:23Z</time>
      </trkpt>
      <trkpt lat="43.74836" lon="6.61111">
        <ele>1575.1</ele>
        <time>2021-09-12T12:12:36Z</time>
      </trkpt>
      <trkpt lat="43.74836" lon="6.61107">
        <ele>1576</ele>
        <time>2021-09-12T12:12:50Z</time>
      </trkpt>
      <trkpt lat="43.74834" lon="6.61102">
        <ele>1577</ele>
        <time>2021-09-12T12:13:09Z</time>
      </trkpt>
      <trkpt lat="43.74832" lon="6.61098">
        <ele>1577.7</ele>
        <time>2021-09-12T12:13:45Z</time>
      </trkpt>
      <trkpt lat="43.74832" lon="6.61099">
        <ele>1577.4</ele>
        <time>2021-09-12T12:14:19Z</time>
      </trkpt>
      <trkpt lat="43.74834" lon="6.61098">
        <ele>1577.8</ele>
        <time>2021-09-12T12:14:48Z</time>
      </trkpt>
      <trkpt lat="43.74837" lon="6.61102">
        <ele>1577</ele>
        <time>2021-09-12T12:15:08Z</time>
      </trkpt>
      <trkpt lat="43.74836" lon="6.61098">
        <ele>1578</ele>
        <time>2021-09-12T12:15:34Z</time>
      </trkpt>
      <trkpt lat="43.74838" lon="6.61094">
        <ele>1578.7</ele>
        <time>2021-09-12T12:16:00Z</time>
      </trkpt>
      <trkpt lat="43.7484" lon="6.61089">
        <ele>1579.9</ele>
        <time>2021-09-12T12:16:23Z</time>
      </trkpt>
      <trkpt lat="43.7484" lon="6.61092">
        <ele>1579.2</ele>
        <time>2021-09-12T12:16:58Z</time>
      </trkpt>
      <trkpt lat="43.74846" lon="6.61093">
        <ele>1579.1</ele>
        <time>2021-09-12T12:17:24Z</time>
      </trkpt>
      <trkpt lat="43.74847" lon="6.61088">
        <ele>1579.9</ele>
        <time>2021-09-12T12:18:00Z</time>
      </trkpt>
      <trkpt lat="43.74849" lon="6.61087">
        <ele>1580.1</ele>
        <time>2021-09-12T12:18:50Z</time>
      </trkpt>
      <trkpt lat="43.74852" lon="6.61087">
        <ele>1580.1</ele>
        <time>2021-09-12T12:19:31Z</time>
      </trkpt>
      <trkpt lat="43.74854" lon="6.61087">
        <ele>1580.1</ele>
        <time>2021-09-12T12:20:04Z</time>
      </trkpt>
      <trkpt lat="43.74858" lon="6.61082">
        <ele>1580.4</ele>
        <time>2021-09-12T12:20:21Z</time>
      </trkpt>
      <trkpt lat="43.74863" lon="6.61077">
        <ele>1579.6</ele>
        <time>2021-09-12T12:20:44Z</time>
      </trkpt>
      <trkpt lat="43.74865" lon="6.61082">
        <ele>1580.3</ele>
        <time>2021-09-12T12:22:04Z</time>
      </trkpt>
      <trkpt lat="43.74874" lon="6.61082">
        <ele>1580.2</ele>
        <time>2021-09-12T12:22:21Z</time>
      </trkpt>
      <trkpt lat="43.74871" lon="6.61072">
        <ele>1578.6</ele>
        <time>2021-09-12T12:22:47Z</time>
      </trkpt>
      <trkpt lat="43.74875" lon="6.61063">
        <ele>1576.9</ele>
        <time>2021-09-12T12:23:05Z</time>
      </trkpt>
      <trkpt lat="43.74883" lon="6.61054">
        <ele>1575.2</ele>
        <time>2021-09-12T12:23:22Z</time>
      </trkpt>
      <trkpt lat="43.7489" lon="6.61049">
        <ele>1574.3</ele>
        <time>2021-09-12T12:23:42Z</time>
      </trkpt>
      <trkpt lat="43.74893" lon="6.61043">
        <ele>1573.2</ele>
        <time>2021-09-12T12:23:58Z</time>
      </trkpt>
      <trkpt lat="43.74889" lon="6.61031">
        <ele>1571.1</ele>
        <time>2021-09-12T12:24:17Z</time>
      </trkpt>
      <trkpt lat="43.74885" lon="6.6102">
        <ele>1569.2</ele>
        <time>2021-09-12T12:24:35Z</time>
      </trkpt>
      <trkpt lat="43.74879" lon="6.61015">
        <ele>1568.6</ele>
        <time>2021-09-12T12:24:53Z</time>
      </trkpt>
      <trkpt lat="43.74878" lon="6.61007">
        <ele>1567.2</ele>
        <time>2021-09-12T12:25:07Z</time>
      </trkpt>
      <trkpt lat="43.74879" lon="6.61001">
        <ele>1566</ele>
        <time>2021-09-12T12:25:27Z</time>
      </trkpt>
      <trkpt lat="43.7488" lon="6.60992">
        <ele>1564.4</ele>
        <time>2021-09-12T12:25:43Z</time>
      </trkpt>
      <trkpt lat="43.74884" lon="6.60985">
        <ele>1563</ele>
        <time>2021-09-12T12:25:59Z</time>
      </trkpt>
      <trkpt lat="43.7488" lon="6.60982">
        <ele>1562.5</ele>
        <time>2021-09-12T12:26:13Z</time>
      </trkpt>
      <trkpt lat="43.74875" lon="6.6097">
        <ele>1560.4</ele>
        <time>2021-09-12T12:26:28Z</time>
      </trkpt>
      <trkpt lat="43.74875" lon="6.6096">
        <ele>1558.7</ele>
        <time>2021-09-12T12:26:46Z</time>
      </trkpt>
      <trkpt lat="43.74871" lon="6.60955">
        <ele>1557.8</ele>
        <time>2021-09-12T12:27:35Z</time>
      </trkpt>
      <trkpt lat="43.74869" lon="6.60953">
        <ele>1557.5</ele>
        <time>2021-09-12T12:27:38Z</time>
      </trkpt>
      <trkpt lat="43.74863" lon="6.60944">
        <ele>1556.2</ele>
        <time>2021-09-12T12:27:50Z</time>
      </trkpt>
      <trkpt lat="43.74857" lon="6.60935">
        <ele>1554.8</ele>
        <time>2021-09-12T12:28:03Z</time>
      </trkpt>
      <trkpt lat="43.74856" lon="6.60924">
        <ele>1553</ele>
        <time>2021-09-12T12:28:13Z</time>
      </trkpt>
      <trkpt lat="43.74862" lon="6.60915">
        <ele>1550.9</ele>
        <time>2021-09-12T12:28:29Z</time>
      </trkpt>
      <trkpt lat="43.74872" lon="6.60906">
        <ele>1548.8</ele>
        <time>2021-09-12T12:28:49Z</time>
      </trkpt>
      <trkpt lat="43.7487" lon="6.60904">
        <ele>1548.7</ele>
        <time>2021-09-12T12:31:13Z</time>
      </trkpt>
      <trkpt lat="43.74868" lon="6.60895">
        <ele>1547.2</ele>
        <time>2021-09-12T12:31:22Z</time>
      </trkpt>
      <trkpt lat="43.74866" lon="6.60884">
        <ele>1545.3</ele>
        <time>2021-09-12T12:31:33Z</time>
      </trkpt>
      <trkpt lat="43.74861" lon="6.60875">
        <ele>1544</ele>
        <time>2021-09-12T12:31:42Z</time>
      </trkpt>
      <trkpt lat="43.74863" lon="6.60867">
        <ele>1542.4</ele>
        <time>2021-09-12T12:31:55Z</time>
      </trkpt>
      <trkpt lat="43.74865" lon="6.60859">
        <ele>1541.1</ele>
        <time>2021-09-12T12:32:06Z</time>
      </trkpt>
      <trkpt lat="43.74865" lon="6.60858">
        <ele>1540.9</ele>
        <time>2021-09-12T12:32:08Z</time>
      </trkpt>
      <trkpt lat="43.74862" lon="6.60841">
        <ele>1538</ele>
        <time>2021-09-12T12:32:22Z</time>
      </trkpt>
      <trkpt lat="43.74868" lon="6.60829">
        <ele>1535.7</ele>
        <time>2021-09-12T12:32:35Z</time>
      </trkpt>
      <trkpt lat="43.74869" lon="6.60827">
        <ele>1535.3</ele>
        <time>2021-09-12T12:34:10Z</time>
      </trkpt>
      <trkpt lat="43.7487" lon="6.60824">
        <ele>1534.8</ele>
        <time>2021-09-12T12:34:17Z</time>
      </trkpt>
      <trkpt lat="43.74871" lon="6.60811">
        <ele>1532.8</ele>
        <time>2021-09-12T12:34:31Z</time>
      </trkpt>
      <trkpt lat="43.74871" lon="6.60794">
        <ele>1530.2</ele>
        <time>2021-09-12T12:34:49Z</time>
      </trkpt>
      <trkpt lat="43.74873" lon="6.60777">
        <ele>1527.6</ele>
        <time>2021-09-12T12:35:09Z</time>
      </trkpt>
      <trkpt lat="43.74871" lon="6.60771">
        <ele>1526.8</ele>
        <time>2021-09-12T12:35:19Z</time>
      </trkpt>
      <trkpt lat="43.74865" lon="6.60758">
        <ele>1525.1</ele>
        <time>2021-09-12T12:35:39Z</time>
      </trkpt>
      <trkpt lat="43.74863" lon="6.60757">
        <ele>1524.9</ele>
        <time>2021-09-12T12:35:43Z</time>
      </trkpt>
      <trkpt lat="43.74859" lon="6.60748">
        <ele>1523.7</ele>
        <time>2021-09-12T12:36:01Z</time>
      </trkpt>
      <trkpt lat="43.74857" lon="6.60738">
        <ele>1522.3</ele>
        <time>2021-09-12T12:36:12Z</time>
      </trkpt>
      <trkpt lat="43.7486" lon="6.60736">
        <ele>1522</ele>
        <time>2021-09-12T12:36:15Z</time>
      </trkpt>
      <trkpt lat="43.74855" lon="6.60717">
        <ele>1519.3</ele>
        <time>2021-09-12T12:36:31Z</time>
      </trkpt>
      <trkpt lat="43.74856" lon="6.6071">
        <ele>1518.2</ele>
        <time>2021-09-12T12:36:37Z</time>
      </trkpt>
      <trkpt lat="43.74854" lon="6.60702">
        <ele>1517</ele>
        <time>2021-09-12T12:37:08Z</time>
      </trkpt>
      <trkpt lat="43.74847" lon="6.60693">
        <ele>1515.8</ele>
        <time>2021-09-12T12:37:21Z</time>
      </trkpt>
      <trkpt lat="43.74836" lon="6.60688">
        <ele>1515.3</ele>
        <time>2021-09-12T12:37:33Z</time>
      </trkpt>
      <trkpt lat="43.74828" lon="6.60685">
        <ele>1514.7</ele>
        <time>2021-09-12T12:37:42Z</time>
      </trkpt>
      <trkpt lat="43.74819" lon="6.60666">
        <ele>1511.5</ele>
        <time>2021-09-12T12:38:00Z</time>
      </trkpt>
      <trkpt lat="43.74817" lon="6.60655">
        <ele>1510.2</ele>
        <time>2021-09-12T12:38:09Z</time>
      </trkpt>
      <trkpt lat="43.74818" lon="6.60648">
        <ele>1509.3</ele>
        <time>2021-09-12T12:38:18Z</time>
      </trkpt>
      <trkpt lat="43.74815" lon="6.60643">
        <ele>1508.4</ele>
        <time>2021-09-12T12:38:28Z</time>
      </trkpt>
      <trkpt lat="43.7481" lon="6.60637">
        <ele>1507.5</ele>
        <time>2021-09-12T12:38:41Z</time>
      </trkpt>
      <trkpt lat="43.74803" lon="6.60634">
        <ele>1506.8</ele>
        <time>2021-09-12T12:38:53Z</time>
      </trkpt>
      <trkpt lat="43.74799" lon="6.60631">
        <ele>1506.1</ele>
        <time>2021-09-12T12:38:59Z</time>
      </trkpt>
      <trkpt lat="43.74795" lon="6.60628">
        <ele>1505.5</ele>
        <time>2021-09-12T12:39:14Z</time>
      </trkpt>
      <trkpt lat="43.74791" lon="6.60629">
        <ele>1505.5</ele>
        <time>2021-09-12T12:39:24Z</time>
      </trkpt>
      <trkpt lat="43.74786" lon="6.6063">
        <ele>1505.4</ele>
        <time>2021-09-12T12:39:36Z</time>
      </trkpt>
      <trkpt lat="43.74783" lon="6.60629">
        <ele>1505.2</ele>
        <time>2021-09-12T12:39:56Z</time>
      </trkpt>
      <trkpt lat="43.74782" lon="6.60625">
        <ele>1504.5</ele>
        <time>2021-09-12T12:40:11Z</time>
      </trkpt>
      <trkpt lat="43.7478" lon="6.6062">
        <ele>1503.6</ele>
        <time>2021-09-12T12:40:38Z</time>
      </trkpt>
      <trkpt lat="43.74777" lon="6.60618">
        <ele>1503.2</ele>
        <time>2021-09-12T12:40:40Z</time>
      </trkpt>
      <trkpt lat="43.74777" lon="6.60615">
        <ele>1502.8</ele>
        <time>2021-09-12T12:41:02Z</time>
      </trkpt>
      <trkpt lat="43.74771" lon="6.6061">
        <ele>1501.6</ele>
        <time>2021-09-12T12:41:32Z</time>
      </trkpt>
      <trkpt lat="43.74767" lon="6.60604">
        <ele>1500.5</ele>
        <time>2021-09-12T12:41:55Z</time>
      </trkpt>
      <trkpt lat="43.74765" lon="6.60598">
        <ele>1499.4</ele>
        <time>2021-09-12T12:42:07Z</time>
      </trkpt>
      <trkpt lat="43.7476" lon="6.60594">
        <ele>1498.5</ele>
        <time>2021-09-12T12:42:18Z</time>
      </trkpt>
      <trkpt lat="43.7476" lon="6.60588">
        <ele>1497.5</ele>
        <time>2021-09-12T12:42:33Z</time>
      </trkpt>
      <trkpt lat="43.74752" lon="6.60579">
        <ele>1495.6</ele>
        <time>2021-09-12T12:42:47Z</time>
      </trkpt>
      <trkpt lat="43.74743" lon="6.60563">
        <ele>1493</ele>
        <time>2021-09-12T12:43:09Z</time>
      </trkpt>
      <trkpt lat="43.7473" lon="6.6055">
        <ele>1490.3</ele>
        <time>2021-09-12T12:43:29Z</time>
      </trkpt>
      <trkpt lat="43.74722" lon="6.60527">
        <ele>1486.9</ele>
        <time>2021-09-12T12:43:47Z</time>
      </trkpt>
      <trkpt lat="43.74718" lon="6.60512">
        <ele>1484.7</ele>
        <time>2021-09-12T12:44:04Z</time>
      </trkpt>
      <trkpt lat="43.74713" lon="6.60506">
        <ele>1483.6</ele>
        <time>2021-09-12T12:44:23Z</time>
      </trkpt>
      <trkpt lat="43.74717" lon="6.60492">
        <ele>1482.6</ele>
        <time>2021-09-12T12:45:06Z</time>
      </trkpt>
      <trkpt lat="43.74723" lon="6.60486">
        <ele>1482.6</ele>
        <time>2021-09-12T12:45:25Z</time>
      </trkpt>
      <trkpt lat="43.74724" lon="6.6048">
        <ele>1482.2</ele>
        <time>2021-09-12T12:45:38Z</time>
      </trkpt>
      <trkpt lat="43.74722" lon="6.60469">
        <ele>1481.2</ele>
        <time>2021-09-12T12:45:52Z</time>
      </trkpt>
      <trkpt lat="43.74719" lon="6.60457">
        <ele>1479.9</ele>
        <time>2021-09-12T12:46:07Z</time>
      </trkpt>
      <trkpt lat="43.74712" lon="6.60445">
        <ele>1478.5</ele>
        <time>2021-09-12T12:46:22Z</time>
      </trkpt>
      <trkpt lat="43.74704" lon="6.60429">
        <ele>1476.7</ele>
        <time>2021-09-12T12:46:37Z</time>
      </trkpt>
      <trkpt lat="43.747" lon="6.60418">
        <ele>1475.5</ele>
        <time>2021-09-12T12:46:52Z</time>
      </trkpt>
      <trkpt lat="43.74691" lon="6.60412">
        <ele>1474.6</ele>
        <time>2021-09-12T12:47:11Z</time>
      </trkpt>
      <trkpt lat="43.74685" lon="6.60407">
        <ele>1474</ele>
        <time>2021-09-12T12:47:31Z</time>
      </trkpt>
      <trkpt lat="43.7468" lon="6.60402">
        <ele>1473.5</ele>
        <time>2021-09-12T12:47:46Z</time>
      </trkpt>
      <trkpt lat="43.74675" lon="6.60404">
        <ele>1473.1</ele>
        <time>2021-09-12T12:47:55Z</time>
      </trkpt>
      <trkpt lat="43.7467" lon="6.60403">
        <ele>1472.7</ele>
        <time>2021-09-12T12:48:03Z</time>
      </trkpt>
      <trkpt lat="43.74663" lon="6.60401">
        <ele>1472</ele>
        <time>2021-09-12T12:48:13Z</time>
      </trkpt>
      <trkpt lat="43.74649" lon="6.60387">
        <ele>1470</ele>
        <time>2021-09-12T12:48:34Z</time>
      </trkpt>
      <trkpt lat="43.74642" lon="6.60387">
        <ele>1469.2</ele>
        <time>2021-09-12T12:48:45Z</time>
      </trkpt>
      <trkpt lat="43.74635" lon="6.60379">
        <ele>1468.3</ele>
        <time>2021-09-12T12:49:01Z</time>
      </trkpt>
      <trkpt lat="43.74626" lon="6.60379">
        <ele>1467.4</ele>
        <time>2021-09-12T12:49:15Z</time>
      </trkpt>
      <trkpt lat="43.74622" lon="6.60383">
        <ele>1467</ele>
        <time>2021-09-12T12:49:25Z</time>
      </trkpt>
      <trkpt lat="43.7461" lon="6.60383">
        <ele>1465.7</ele>
        <time>2021-09-12T12:49:36Z</time>
      </trkpt>
      <trkpt lat="43.746" lon="6.60384">
        <ele>1464.6</ele>
        <time>2021-09-12T12:49:52Z</time>
      </trkpt>
      <trkpt lat="43.74585" lon="6.60393">
        <ele>1462.8</ele>
        <time>2021-09-12T12:50:10Z</time>
      </trkpt>
      <trkpt lat="43.74575" lon="6.60392">
        <ele>1461.4</ele>
        <time>2021-09-12T12:50:27Z</time>
      </trkpt>
      <trkpt lat="43.74565" lon="6.60386">
        <ele>1460.4</ele>
        <time>2021-09-12T12:50:42Z</time>
      </trkpt>
      <trkpt lat="43.74577" lon="6.6035">
        <ele>1462.9</ele>
        <time>2021-09-12T12:55:50Z</time>
      </trkpt>
      <trkpt lat="43.74577" lon="6.60337">
        <ele>1463.2</ele>
        <time>2021-09-12T12:56:07Z</time>
      </trkpt>
      <trkpt lat="43.74578" lon="6.60324">
        <ele>1463.4</ele>
        <time>2021-09-12T12:56:20Z</time>
      </trkpt>
      <trkpt lat="43.7458" lon="6.60318">
        <ele>1463.6</ele>
        <time>2021-09-12T12:56:23Z</time>
      </trkpt>
      <trkpt lat="43.74575" lon="6.60309">
        <ele>1463.1</ele>
        <time>2021-09-12T12:56:33Z</time>
      </trkpt>
      <trkpt lat="43.74567" lon="6.60282">
        <ele>1462.4</ele>
        <time>2021-09-12T12:56:53Z</time>
      </trkpt>
      <trkpt lat="43.74563" lon="6.60276">
        <ele>1462</ele>
        <time>2021-09-12T12:56:58Z</time>
      </trkpt>
      <trkpt lat="43.74557" lon="6.60267">
        <ele>1461.4</ele>
        <time>2021-09-12T12:57:06Z</time>
      </trkpt>
      <trkpt lat="43.74545" lon="6.60238">
        <ele>1460.3</ele>
        <time>2021-09-12T12:57:29Z</time>
      </trkpt>
      <trkpt lat="43.74538" lon="6.60213">
        <ele>1459.7</ele>
        <time>2021-09-12T12:57:46Z</time>
      </trkpt>
      <trkpt lat="43.74529" lon="6.60193">
        <ele>1459</ele>
        <time>2021-09-12T12:58:05Z</time>
      </trkpt>
      <trkpt lat="43.74532" lon="6.60181">
        <ele>1459.3</ele>
        <time>2021-09-12T12:58:16Z</time>
      </trkpt>
      <trkpt lat="43.74548" lon="6.60165">
        <ele>1460.4</ele>
        <time>2021-09-12T12:58:36Z</time>
      </trkpt>
      <trkpt lat="43.74555" lon="6.60141">
        <ele>1461.1</ele>
        <time>2021-09-12T12:58:54Z</time>
      </trkpt>
      <trkpt lat="43.74554" lon="6.60123">
        <ele>1461.2</ele>
        <time>2021-09-12T12:59:16Z</time>
      </trkpt>
      <trkpt lat="43.74541" lon="6.601">
        <ele>1460.4</ele>
        <time>2021-09-12T12:59:37Z</time>
      </trkpt>
      <trkpt lat="43.74528" lon="6.60082">
        <ele>1459.3</ele>
        <time>2021-09-12T12:59:55Z</time>
      </trkpt>
      <trkpt lat="43.74518" lon="6.60057">
        <ele>1457.7</ele>
        <time>2021-09-12T13:00:14Z</time>
      </trkpt>
      <trkpt lat="43.74513" lon="6.6004">
        <ele>1456.9</ele>
        <time>2021-09-12T13:00:26Z</time>
      </trkpt>
      <trkpt lat="43.74504" lon="6.60016">
        <ele>1455.6</ele>
        <time>2021-09-12T13:00:46Z</time>
      </trkpt>
      <trkpt lat="43.74498" lon="6.59988">
        <ele>1454.5</ele>
        <time>2021-09-12T13:01:07Z</time>
      </trkpt>
      <trkpt lat="43.7449" lon="6.59978">
        <ele>1453.6</ele>
        <time>2021-09-12T13:01:22Z</time>
      </trkpt>
      <trkpt lat="43.74485" lon="6.59971">
        <ele>1453.1</ele>
        <time>2021-09-12T13:01:36Z</time>
      </trkpt>
      <trkpt lat="43.74473" lon="6.59948">
        <ele>1452</ele>
        <time>2021-09-12T13:01:59Z</time>
      </trkpt>
      <trkpt lat="43.74467" lon="6.59915">
        <ele>1451.4</ele>
        <time>2021-09-12T13:02:21Z</time>
      </trkpt>
      <trkpt lat="43.74459" lon="6.599">
        <ele>1450.8</ele>
        <time>2021-09-12T13:02:41Z</time>
      </trkpt>
      <trkpt lat="43.74454" lon="6.59897">
        <ele>1450.6</ele>
        <time>2021-09-12T13:02:59Z</time>
      </trkpt>
      <trkpt lat="43.74453" lon="6.59895">
        <ele>1450.5</ele>
        <time>2021-09-12T13:03:16Z</time>
      </trkpt>
      <trkpt lat="43.74455" lon="6.59895">
        <ele>1450.6</ele>
        <time>2021-09-12T13:03:41Z</time>
      </trkpt>
      <trkpt lat="43.74453" lon="6.5989">
        <ele>1450.5</ele>
        <time>2021-09-12T13:03:55Z</time>
      </trkpt>
      <trkpt lat="43.74452" lon="6.5989">
        <ele>1450.4</ele>
        <time>2021-09-12T13:03:59Z</time>
      </trkpt>
      <trkpt lat="43.74445" lon="6.59882">
        <ele>1450.1</ele>
        <time>2021-09-12T13:04:31Z</time>
      </trkpt>
      <trkpt lat="43.74435" lon="6.59881">
        <ele>1449.7</ele>
        <time>2021-09-12T13:04:46Z</time>
      </trkpt>
      <trkpt lat="43.74426" lon="6.59862">
        <ele>1449.3</ele>
        <time>2021-09-12T13:05:04Z</time>
      </trkpt>
      <trkpt lat="43.74426" lon="6.59858">
        <ele>1449.3</ele>
        <time>2021-09-12T13:05:07Z</time>
      </trkpt>
      <trkpt lat="43.7443" lon="6.59845">
        <ele>1449.4</ele>
        <time>2021-09-12T13:05:18Z</time>
      </trkpt>
      <trkpt lat="43.74439" lon="6.59833">
        <ele>1449.5</ele>
        <time>2021-09-12T13:05:33Z</time>
      </trkpt>
      <trkpt lat="43.74441" lon="6.59831">
        <ele>1449.6</ele>
        <time>2021-09-12T13:05:35Z</time>
      </trkpt>
      <trkpt lat="43.74452" lon="6.59823">
        <ele>1449.8</ele>
        <time>2021-09-12T13:05:47Z</time>
      </trkpt>
      <trkpt lat="43.74457" lon="6.59813">
        <ele>1449.8</ele>
        <time>2021-09-12T13:05:55Z</time>
      </trkpt>
      <trkpt lat="43.74462" lon="6.59803">
        <ele>1449.9</ele>
        <time>2021-09-12T13:06:07Z</time>
      </trkpt>
      <trkpt lat="43.74464" lon="6.59783">
        <ele>1449.9</ele>
        <time>2021-09-12T13:06:20Z</time>
      </trkpt>
      <trkpt lat="43.74465" lon="6.59776">
        <ele>1449.9</ele>
        <time>2021-09-12T13:06:24Z</time>
      </trkpt>
      <trkpt lat="43.74465" lon="6.59748">
        <ele>1449.7</ele>
        <time>2021-09-12T13:06:41Z</time>
      </trkpt>
      <trkpt lat="43.74465" lon="6.59733">
        <ele>1449.6</ele>
        <time>2021-09-12T13:06:56Z</time>
      </trkpt>
      <trkpt lat="43.74461" lon="6.59726">
        <ele>1449.4</ele>
        <time>2021-09-12T13:07:17Z</time>
      </trkpt>
      <trkpt lat="43.74455" lon="6.59715">
        <ele>1449.2</ele>
        <time>2021-09-12T13:07:33Z</time>
      </trkpt>
      <trkpt lat="43.74454" lon="6.59688">
        <ele>1449</ele>
        <time>2021-09-12T13:07:53Z</time>
      </trkpt>
      <trkpt lat="43.74456" lon="6.59656">
        <ele>1448.8</ele>
        <time>2021-09-12T13:08:14Z</time>
      </trkpt>
      <trkpt lat="43.74456" lon="6.59632">
        <ele>1448.5</ele>
        <time>2021-09-12T13:08:31Z</time>
      </trkpt>
      <trkpt lat="43.74457" lon="6.5961">
        <ele>1448.3</ele>
        <time>2021-09-12T13:08:46Z</time>
      </trkpt>
      <trkpt lat="43.74454" lon="6.59601">
        <ele>1448.1</ele>
        <time>2021-09-12T13:08:52Z</time>
      </trkpt>
      <trkpt lat="43.74447" lon="6.59583">
        <ele>1447.7</ele>
        <time>2021-09-12T13:09:05Z</time>
      </trkpt>
      <trkpt lat="43.74442" lon="6.59566">
        <ele>1447</ele>
        <time>2021-09-12T13:09:18Z</time>
      </trkpt>
      <trkpt lat="43.74434" lon="6.59548">
        <ele>1446.1</ele>
        <time>2021-09-12T13:09:31Z</time>
      </trkpt>
      <trkpt lat="43.74425" lon="6.59527">
        <ele>1445.2</ele>
        <time>2021-09-12T13:09:46Z</time>
      </trkpt>
      <trkpt lat="43.7442" lon="6.59512">
        <ele>1444.5</ele>
        <time>2021-09-12T13:09:56Z</time>
      </trkpt>
      <trkpt lat="43.74408" lon="6.59479">
        <ele>1443.6</ele>
        <time>2021-09-12T13:10:19Z</time>
      </trkpt>
      <trkpt lat="43.74404" lon="6.5946">
        <ele>1443.5</ele>
        <time>2021-09-12T13:10:32Z</time>
      </trkpt>
      <trkpt lat="43.74399" lon="6.59426">
        <ele>1443.3</ele>
        <time>2021-09-12T13:10:55Z</time>
      </trkpt>
      <trkpt lat="43.74394" lon="6.59411">
        <ele>1442.6</ele>
        <time>2021-09-12T13:11:08Z</time>
      </trkpt>
      <trkpt lat="43.74391" lon="6.59402">
        <ele>1441.8</ele>
        <time>2021-09-12T13:11:15Z</time>
      </trkpt>
      <trkpt lat="43.74386" lon="6.5938">
        <ele>1440.3</ele>
        <time>2021-09-12T13:11:29Z</time>
      </trkpt>
      <trkpt lat="43.7438" lon="6.59365">
        <ele>1438.9</ele>
        <time>2021-09-12T13:11:41Z</time>
      </trkpt>
      <trkpt lat="43.74378" lon="6.59361">
        <ele>1438.5</ele>
        <time>2021-09-12T13:11:44Z</time>
      </trkpt>
      <trkpt lat="43.74375" lon="6.59335">
        <ele>1437.1</ele>
        <time>2021-09-12T13:11:59Z</time>
      </trkpt>
      <trkpt lat="43.74377" lon="6.5931">
        <ele>1436.3</ele>
        <time>2021-09-12T13:12:19Z</time>
      </trkpt>
      <trkpt lat="43.74373" lon="6.59276">
        <ele>1434.3</ele>
        <time>2021-09-12T13:12:38Z</time>
      </trkpt>
      <trkpt lat="43.74369" lon="6.59255">
        <ele>1432.5</ele>
        <time>2021-09-12T13:12:53Z</time>
      </trkpt>
      <trkpt lat="43.74373" lon="6.59247">
        <ele>1432.9</ele>
        <time>2021-09-12T13:13:00Z</time>
      </trkpt>
      <trkpt lat="43.74378" lon="6.59214">
        <ele>1432.7</ele>
        <time>2021-09-12T13:13:20Z</time>
      </trkpt>
      <trkpt lat="43.74374" lon="6.59178">
        <ele>1430.8</ele>
        <time>2021-09-12T13:13:45Z</time>
      </trkpt>
      <trkpt lat="43.74377" lon="6.59148">
        <ele>1429.2</ele>
        <time>2021-09-12T13:14:03Z</time>
      </trkpt>
      <trkpt lat="43.74378" lon="6.59142">
        <ele>1428.7</ele>
        <time>2021-09-12T13:14:07Z</time>
      </trkpt>
      <trkpt lat="43.74383" lon="6.59119">
        <ele>1427.4</ele>
        <time>2021-09-12T13:14:21Z</time>
      </trkpt>
      <trkpt lat="43.74384" lon="6.59089">
        <ele>1425</ele>
        <time>2021-09-12T13:14:39Z</time>
      </trkpt>
      <trkpt lat="43.74382" lon="6.59071">
        <ele>1423.2</ele>
        <time>2021-09-12T13:14:54Z</time>
      </trkpt>
      <trkpt lat="43.74384" lon="6.59059">
        <ele>1422.3</ele>
        <time>2021-09-12T13:15:04Z</time>
      </trkpt>
      <trkpt lat="43.74383" lon="6.59056">
        <ele>1422</ele>
        <time>2021-09-12T13:15:15Z</time>
      </trkpt>
      <trkpt lat="43.74381" lon="6.59044">
        <ele>1420.4</ele>
        <time>2021-09-12T13:15:29Z</time>
      </trkpt>
      <trkpt lat="43.74378" lon="6.59028">
        <ele>1418.5</ele>
        <time>2021-09-12T13:15:39Z</time>
      </trkpt>
      <trkpt lat="43.74375" lon="6.59014">
        <ele>1416.7</ele>
        <time>2021-09-12T13:15:48Z</time>
      </trkpt>
      <trkpt lat="43.7437" lon="6.58999">
        <ele>1414.4</ele>
        <time>2021-09-12T13:16:01Z</time>
      </trkpt>
      <trkpt lat="43.74366" lon="6.58986">
        <ele>1412.5</ele>
        <time>2021-09-12T13:16:11Z</time>
      </trkpt>
      <trkpt lat="43.74364" lon="6.5897">
        <ele>1410.5</ele>
        <time>2021-09-12T13:16:21Z</time>
      </trkpt>
      <trkpt lat="43.74358" lon="6.58949">
        <ele>1407.4</ele>
        <time>2021-09-12T13:16:38Z</time>
      </trkpt>
      <trkpt lat="43.74349" lon="6.58927">
        <ele>1403.2</ele>
        <time>2021-09-12T13:16:57Z</time>
      </trkpt>
      <trkpt lat="43.7434" lon="6.589">
        <ele>1398.9</ele>
        <time>2021-09-12T13:17:15Z</time>
      </trkpt>
      <trkpt lat="43.74333" lon="6.58884">
        <ele>1395.7</ele>
        <time>2021-09-12T13:17:31Z</time>
      </trkpt>
      <trkpt lat="43.74341" lon="6.58865">
        <ele>1395.9</ele>
        <time>2021-09-12T13:17:48Z</time>
      </trkpt>
      <trkpt lat="43.74339" lon="6.58851">
        <ele>1394</ele>
        <time>2021-09-12T13:18:02Z</time>
      </trkpt>
      <trkpt lat="43.7433" lon="6.58835">
        <ele>1390.3</ele>
        <time>2021-09-12T13:18:21Z</time>
      </trkpt>
      <trkpt lat="43.74322" lon="6.58824">
        <ele>1386.4</ele>
        <time>2021-09-12T13:18:40Z</time>
      </trkpt>
      <trkpt lat="43.74315" lon="6.58817">
        <ele>1383.4</ele>
        <time>2021-09-12T13:18:58Z</time>
      </trkpt>
      <trkpt lat="43.74318" lon="6.58815">
        <ele>1384.2</ele>
        <time>2021-09-12T13:19:41Z</time>
      </trkpt>
      <trkpt lat="43.74318" lon="6.58813">
        <ele>1384</ele>
        <time>2021-09-12T13:20:11Z</time>
      </trkpt>
      <trkpt lat="43.74319" lon="6.58813">
        <ele>1384.2</ele>
        <time>2021-09-12T13:20:50Z</time>
      </trkpt>
      <trkpt lat="43.74321" lon="6.58813">
        <ele>1384.9</ele>
        <time>2021-09-12T13:21:33Z</time>
      </trkpt>
      <trkpt lat="43.7432" lon="6.58814">
        <ele>1384.5</ele>
        <time>2021-09-12T13:22:14Z</time>
      </trkpt>
      <trkpt lat="43.74319" lon="6.58809">
        <ele>1383.9</ele>
        <time>2021-09-12T13:22:45Z</time>
      </trkpt>
      <trkpt lat="43.74319" lon="6.58797">
        <ele>1382.5</ele>
        <time>2021-09-12T13:22:57Z</time>
      </trkpt>
      <trkpt lat="43.74317" lon="6.58778">
        <ele>1379.8</ele>
        <time>2021-09-12T13:23:14Z</time>
      </trkpt>
      <trkpt lat="43.74312" lon="6.58767">
        <ele>1376.8</ele>
        <time>2021-09-12T13:23:26Z</time>
      </trkpt>
      <trkpt lat="43.74312" lon="6.5876">
        <ele>1375.9</ele>
        <time>2021-09-12T13:23:31Z</time>
      </trkpt>
      <trkpt lat="43.74308" lon="6.58749">
        <ele>1373.3</ele>
        <time>2021-09-12T13:23:44Z</time>
      </trkpt>
      <trkpt lat="43.74304" lon="6.58729">
        <ele>1370</ele>
        <time>2021-09-12T13:24:00Z</time>
      </trkpt>
      <trkpt lat="43.74303" lon="6.5872">
        <ele>1368.4</ele>
        <time>2021-09-12T13:24:11Z</time>
      </trkpt>
      <trkpt lat="43.74302" lon="6.5871">
        <ele>1367.1</ele>
        <time>2021-09-12T13:24:23Z</time>
      </trkpt>
      <trkpt lat="43.74304" lon="6.58699">
        <ele>1366.4</ele>
        <time>2021-09-12T13:24:36Z</time>
      </trkpt>
      <trkpt lat="43.74304" lon="6.58684">
        <ele>1364.8</ele>
        <time>2021-09-12T13:24:51Z</time>
      </trkpt>
      <trkpt lat="43.74307" lon="6.58672">
        <ele>1364.2</ele>
        <time>2021-09-12T13:25:06Z</time>
      </trkpt>
      <trkpt lat="43.74312" lon="6.58657">
        <ele>1364.3</ele>
        <time>2021-09-12T13:25:23Z</time>
      </trkpt>
      <trkpt lat="43.74319" lon="6.58639">
        <ele>1364.4</ele>
        <time>2021-09-12T13:25:42Z</time>
      </trkpt>
      <trkpt lat="43.74323" lon="6.58616">
        <ele>1363.6</ele>
        <time>2021-09-12T13:25:59Z</time>
      </trkpt>
      <trkpt lat="43.74322" lon="6.58598">
        <ele>1362</ele>
        <time>2021-09-12T13:26:19Z</time>
      </trkpt>
      <trkpt lat="43.74313" lon="6.58596">
        <ele>1360.3</ele>
        <time>2021-09-12T13:26:35Z</time>
      </trkpt>
      <trkpt lat="43.74304" lon="6.58585">
        <ele>1357.8</ele>
        <time>2021-09-12T13:26:55Z</time>
      </trkpt>
      <trkpt lat="43.74298" lon="6.58579">
        <ele>1356.6</ele>
        <time>2021-09-12T13:27:06Z</time>
      </trkpt>
      <trkpt lat="43.74293" lon="6.58558">
        <ele>1355.8</ele>
        <time>2021-09-12T13:27:27Z</time>
      </trkpt>
      <trkpt lat="43.74291" lon="6.58529">
        <ele>1355.4</ele>
        <time>2021-09-12T13:27:48Z</time>
      </trkpt>
      <trkpt lat="43.74278" lon="6.58499">
        <ele>1354.7</ele>
        <time>2021-09-12T13:28:14Z</time>
      </trkpt>
      <trkpt lat="43.74275" lon="6.58498">
        <ele>1354.8</ele>
        <time>2021-09-12T13:28:40Z</time>
      </trkpt>
      <trkpt lat="43.74275" lon="6.58499">
        <ele>1354.6</ele>
        <time>2021-09-12T13:28:48Z</time>
      </trkpt>
      <trkpt lat="43.74279" lon="6.585">
        <ele>1354.7</ele>
        <time>2021-09-12T13:29:09Z</time>
      </trkpt>
      <trkpt lat="43.7427" lon="6.58506">
        <ele>1354</ele>
        <time>2021-09-12T13:29:34Z</time>
      </trkpt>
      <trkpt lat="43.74267" lon="6.58508">
        <ele>1353.7</ele>
        <time>2021-09-12T13:29:46Z</time>
      </trkpt>
      <trkpt lat="43.74254" lon="6.58495">
        <ele>1353.9</ele>
        <time>2021-09-12T13:30:02Z</time>
      </trkpt>
      <trkpt lat="43.74246" lon="6.58492">
        <ele>1353.4</ele>
        <time>2021-09-12T13:30:17Z</time>
      </trkpt>
      <trkpt lat="43.74239" lon="6.58492">
        <ele>1352.3</ele>
        <time>2021-09-12T13:30:27Z</time>
      </trkpt>
      <trkpt lat="43.74237" lon="6.58492">
        <ele>1352</ele>
        <time>2021-09-12T13:30:29Z</time>
      </trkpt>
      <trkpt lat="43.74231" lon="6.58502">
        <ele>1349.7</ele>
        <time>2021-09-12T13:30:38Z</time>
      </trkpt>
      <trkpt lat="43.74229" lon="6.58503">
        <ele>1349.3</ele>
        <time>2021-09-12T13:30:40Z</time>
      </trkpt>
      <trkpt lat="43.74214" lon="6.58506">
        <ele>1346.3</ele>
        <time>2021-09-12T13:30:55Z</time>
      </trkpt>
      <trkpt lat="43.74198" lon="6.58514">
        <ele>1342.8</ele>
        <time>2021-09-12T13:31:10Z</time>
      </trkpt>
      <trkpt lat="43.74183" lon="6.58523">
        <ele>1338.9</ele>
        <time>2021-09-12T13:31:26Z</time>
      </trkpt>
      <trkpt lat="43.74171" lon="6.58529">
        <ele>1335.6</ele>
        <time>2021-09-12T13:31:41Z</time>
      </trkpt>
      <trkpt lat="43.74159" lon="6.58537">
        <ele>1331.7</ele>
        <time>2021-09-12T13:31:55Z</time>
      </trkpt>
      <trkpt lat="43.7415" lon="6.58545">
        <ele>1328.4</ele>
        <time>2021-09-12T13:32:09Z</time>
      </trkpt>
      <trkpt lat="43.74142" lon="6.58559">
        <ele>1324.2</ele>
        <time>2021-09-12T13:32:26Z</time>
      </trkpt>
      <trkpt lat="43.74141" lon="6.58574">
        <ele>1321.8</ele>
        <time>2021-09-12T13:32:41Z</time>
      </trkpt>
      <trkpt lat="43.74139" lon="6.58588">
        <ele>1319.5</ele>
        <time>2021-09-12T13:32:56Z</time>
      </trkpt>
      <trkpt lat="43.74137" lon="6.58601">
        <ele>1317.9</ele>
        <time>2021-09-12T13:33:11Z</time>
      </trkpt>
      <trkpt lat="43.74137" lon="6.58611">
        <ele>1316.9</ele>
        <time>2021-09-12T13:33:24Z</time>
      </trkpt>
      <trkpt lat="43.74127" lon="6.58619">
        <ele>1313.3</ele>
        <time>2021-09-12T13:33:39Z</time>
      </trkpt>
      <trkpt lat="43.74117" lon="6.58623">
        <ele>1310.2</ele>
        <time>2021-09-12T13:33:50Z</time>
      </trkpt>
      <trkpt lat="43.74107" lon="6.58628">
        <ele>1307</ele>
        <time>2021-09-12T13:34:03Z</time>
      </trkpt>
      <trkpt lat="43.74102" lon="6.58637">
        <ele>1304.4</ele>
        <time>2021-09-12T13:34:21Z</time>
      </trkpt>
      <trkpt lat="43.74098" lon="6.58637">
        <ele>1303.2</ele>
        <time>2021-09-12T13:34:43Z</time>
      </trkpt>
      <trkpt lat="43.74089" lon="6.58645">
        <ele>1299.6</ele>
        <time>2021-09-12T13:35:00Z</time>
      </trkpt>
      <trkpt lat="43.74085" lon="6.58654">
        <ele>1297.2</ele>
        <time>2021-09-12T13:35:15Z</time>
      </trkpt>
      <trkpt lat="43.74076" lon="6.58656">
        <ele>1295</ele>
        <time>2021-09-12T13:35:27Z</time>
      </trkpt>
      <trkpt lat="43.74072" lon="6.58664">
        <ele>1293.2</ele>
        <time>2021-09-12T13:35:40Z</time>
      </trkpt>
      <trkpt lat="43.74063" lon="6.58665">
        <ele>1291.4</ele>
        <time>2021-09-12T13:35:53Z</time>
      </trkpt>
      <trkpt lat="43.74061" lon="6.58666">
        <ele>1291</ele>
        <time>2021-09-12T13:35:55Z</time>
      </trkpt>
      <trkpt lat="43.7405" lon="6.58668">
        <ele>1288.9</ele>
        <time>2021-09-12T13:36:08Z</time>
      </trkpt>
      <trkpt lat="43.7404" lon="6.58665">
        <ele>1287.3</ele>
        <time>2021-09-12T13:36:20Z</time>
      </trkpt>
      <trkpt lat="43.74032" lon="6.58665">
        <ele>1286</ele>
        <time>2021-09-12T13:36:30Z</time>
      </trkpt>
      <trkpt lat="43.74024" lon="6.58666">
        <ele>1284.4</ele>
        <time>2021-09-12T13:36:42Z</time>
      </trkpt>
      <trkpt lat="43.74018" lon="6.58675">
        <ele>1282</ele>
        <time>2021-09-12T13:36:59Z</time>
      </trkpt>
      <trkpt lat="43.74018" lon="6.58687">
        <ele>1280.2</ele>
        <time>2021-09-12T13:37:11Z</time>
      </trkpt>
      <trkpt lat="43.74016" lon="6.587">
        <ele>1277.8</ele>
        <time>2021-09-12T13:37:29Z</time>
      </trkpt>
      <trkpt lat="43.74023" lon="6.58717">
        <ele>1276.5</ele>
        <time>2021-09-12T13:37:46Z</time>
      </trkpt>
      <trkpt lat="43.74035" lon="6.58735">
        <ele>1276.6</ele>
        <time>2021-09-12T13:38:05Z</time>
      </trkpt>
      <trkpt lat="43.74032" lon="6.58741">
        <ele>1275</ele>
        <time>2021-09-12T13:38:17Z</time>
      </trkpt>
      <trkpt lat="43.74021" lon="6.58737">
        <ele>1273</ele>
        <time>2021-09-12T13:38:32Z</time>
      </trkpt>
      <trkpt lat="43.74014" lon="6.58737">
        <ele>1271.4</ele>
        <time>2021-09-12T13:38:46Z</time>
      </trkpt>
      <trkpt lat="43.74008" lon="6.58745">
        <ele>1268.7</ele>
        <time>2021-09-12T13:39:04Z</time>
      </trkpt>
      <trkpt lat="43.74007" lon="6.58752">
        <ele>1267.4</ele>
        <time>2021-09-12T13:39:21Z</time>
      </trkpt>
      <trkpt lat="43.73998" lon="6.58754">
        <ele>1264.4</ele>
        <time>2021-09-12T13:39:37Z</time>
      </trkpt>
      <trkpt lat="43.73989" lon="6.58755">
        <ele>1260.7</ele>
        <time>2021-09-12T13:39:50Z</time>
      </trkpt>
      <trkpt lat="43.73974" lon="6.58754">
        <ele>1255.1</ele>
        <time>2021-09-12T13:40:06Z</time>
      </trkpt>
      <trkpt lat="43.73974" lon="6.58767">
        <ele>1252.5</ele>
        <time>2021-09-12T13:40:20Z</time>
      </trkpt>
      <trkpt lat="43.73982" lon="6.58779">
        <ele>1253.8</ele>
        <time>2021-09-12T13:40:39Z</time>
      </trkpt>
      <trkpt lat="43.73974" lon="6.58781">
        <ele>1250.1</ele>
        <time>2021-09-12T13:40:54Z</time>
      </trkpt>
      <trkpt lat="43.73973" lon="6.5879">
        <ele>1248</ele>
        <time>2021-09-12T13:41:08Z</time>
      </trkpt>
      <trkpt lat="43.73982" lon="6.58803">
        <ele>1249.6</ele>
        <time>2021-09-12T13:41:27Z</time>
      </trkpt>
      <trkpt lat="43.73989" lon="6.58816">
        <ele>1250.1</ele>
        <time>2021-09-12T13:41:43Z</time>
      </trkpt>
      <trkpt lat="43.73986" lon="6.5883">
        <ele>1246.5</ele>
        <time>2021-09-12T13:41:59Z</time>
      </trkpt>
      <trkpt lat="43.7398" lon="6.58846">
        <ele>1242.9</ele>
        <time>2021-09-12T13:42:17Z</time>
      </trkpt>
      <trkpt lat="43.73973" lon="6.58858">
        <ele>1239.3</ele>
        <time>2021-09-12T13:42:35Z</time>
      </trkpt>
      <trkpt lat="43.73965" lon="6.58872">
        <ele>1235.2</ele>
        <time>2021-09-12T13:42:53Z</time>
      </trkpt>
      <trkpt lat="43.73959" lon="6.58888">
        <ele>1231</ele>
        <time>2021-09-12T13:43:12Z</time>
      </trkpt>
      <trkpt lat="43.73953" lon="6.58905">
        <ele>1226.7</ele>
        <time>2021-09-12T13:43:30Z</time>
      </trkpt>
      <trkpt lat="43.73951" lon="6.58914">
        <ele>1224.8</ele>
        <time>2021-09-12T13:43:45Z</time>
      </trkpt>
      <trkpt lat="43.73948" lon="6.58913">
        <ele>1223.1</ele>
        <time>2021-09-12T13:44:22Z</time>
      </trkpt>
      <trkpt lat="43.73942" lon="6.58896">
        <ele>1221.5</ele>
        <time>2021-09-12T13:44:41Z</time>
      </trkpt>
      <trkpt lat="43.73936" lon="6.58899">
        <ele>1217.9</ele>
        <time>2021-09-12T13:44:57Z</time>
      </trkpt>
      <trkpt lat="43.73927" lon="6.58932">
        <ele>1210.6</ele>
        <time>2021-09-12T13:45:22Z</time>
      </trkpt>
      <trkpt lat="43.73922" lon="6.58956">
        <ele>1206.9</ele>
        <time>2021-09-12T13:45:40Z</time>
      </trkpt>
      <trkpt lat="43.73915" lon="6.58966">
        <ele>1202.8</ele>
        <time>2021-09-12T13:45:57Z</time>
      </trkpt>
      <trkpt lat="43.73915" lon="6.58965">
        <ele>1202.9</ele>
        <time>2021-09-12T13:45:58Z</time>
      </trkpt>
      <trkpt lat="43.73912" lon="6.58943">
        <ele>1201</ele>
        <time>2021-09-12T13:46:13Z</time>
      </trkpt>
      <trkpt lat="43.73907" lon="6.58923">
        <ele>1198.6</ele>
        <time>2021-09-12T13:46:31Z</time>
      </trkpt>
      <trkpt lat="43.73904" lon="6.58907">
        <ele>1198.3</ele>
        <time>2021-09-12T13:46:45Z</time>
      </trkpt>
      <trkpt lat="43.73901" lon="6.58889">
        <ele>1198.8</ele>
        <time>2021-09-12T13:47:03Z</time>
      </trkpt>
      <trkpt lat="43.73898" lon="6.58876">
        <ele>1198.3</ele>
        <time>2021-09-12T13:47:16Z</time>
      </trkpt>
      <trkpt lat="43.73888" lon="6.58863">
        <ele>1194</ele>
        <time>2021-09-12T13:47:33Z</time>
      </trkpt>
      <trkpt lat="43.73883" lon="6.58853">
        <ele>1191.9</ele>
        <time>2021-09-12T13:47:48Z</time>
      </trkpt>
      <trkpt lat="43.73878" lon="6.58846">
        <ele>1189.6</ele>
        <time>2021-09-12T13:48:02Z</time>
      </trkpt>
      <trkpt lat="43.73872" lon="6.58836">
        <ele>1187.4</ele>
        <time>2021-09-12T13:48:16Z</time>
      </trkpt>
      <trkpt lat="43.73867" lon="6.58828">
        <ele>1185.2</ele>
        <time>2021-09-12T13:48:29Z</time>
      </trkpt>
      <trkpt lat="43.73862" lon="6.58818">
        <ele>1183.4</ele>
        <time>2021-09-12T13:48:43Z</time>
      </trkpt>
      <trkpt lat="43.73854" lon="6.58808">
        <ele>1180.1</ele>
        <time>2021-09-12T13:48:57Z</time>
      </trkpt>
      <trkpt lat="43.73847" lon="6.58796">
        <ele>1177.3</ele>
        <time>2021-09-12T13:49:12Z</time>
      </trkpt>
      <trkpt lat="43.73842" lon="6.58789">
        <ele>1174.6</ele>
        <time>2021-09-12T13:49:26Z</time>
      </trkpt>
      <trkpt lat="43.73836" lon="6.58781">
        <ele>1171.7</ele>
        <time>2021-09-12T13:49:41Z</time>
      </trkpt>
      <trkpt lat="43.73831" lon="6.58771">
        <ele>1169.9</ele>
        <time>2021-09-12T13:49:55Z</time>
      </trkpt>
      <trkpt lat="43.73827" lon="6.58771">
        <ele>1167.5</ele>
        <time>2021-09-12T13:50:07Z</time>
      </trkpt>
      <trkpt lat="43.73824" lon="6.58765">
        <ele>1166.1</ele>
        <time>2021-09-12T13:50:17Z</time>
      </trkpt>
      <trkpt lat="43.73816" lon="6.58748">
        <ele>1162.9</ele>
        <time>2021-09-12T13:50:33Z</time>
      </trkpt>
      <trkpt lat="43.73814" lon="6.58738">
        <ele>1161.8</ele>
        <time>2021-09-12T13:50:47Z</time>
      </trkpt>
      <trkpt lat="43.73812" lon="6.5873">
        <ele>1161.2</ele>
        <time>2021-09-12T13:51:02Z</time>
      </trkpt>
      <trkpt lat="43.73811" lon="6.58722">
        <ele>1160.6</ele>
        <time>2021-09-12T13:51:25Z</time>
      </trkpt>
      <trkpt lat="43.73809" lon="6.58713">
        <ele>1160</ele>
        <time>2021-09-12T13:51:37Z</time>
      </trkpt>
      <trkpt lat="43.73807" lon="6.5871">
        <ele>1158.7</ele>
        <time>2021-09-12T13:51:49Z</time>
      </trkpt>
      <trkpt lat="43.73806" lon="6.58722">
        <ele>1157.7</ele>
        <time>2021-09-12T13:52:09Z</time>
      </trkpt>
      <trkpt lat="43.73806" lon="6.58726">
        <ele>1157.2</ele>
        <time>2021-09-12T13:52:26Z</time>
      </trkpt>
      <trkpt lat="43.73802" lon="6.58737">
        <ele>1154.2</ele>
        <time>2021-09-12T13:52:40Z</time>
      </trkpt>
      <trkpt lat="43.73794" lon="6.5873">
        <ele>1149.8</ele>
        <time>2021-09-12T13:52:56Z</time>
      </trkpt>
      <trkpt lat="43.73792" lon="6.58713">
        <ele>1148.7</ele>
        <time>2021-09-12T13:53:13Z</time>
      </trkpt>
      <trkpt lat="43.73792" lon="6.58706">
        <ele>1149.1</ele>
        <time>2021-09-12T13:53:26Z</time>
      </trkpt>
      <trkpt lat="43.73792" lon="6.58705">
        <ele>1149</ele>
        <time>2021-09-12T13:53:27Z</time>
      </trkpt>
      <trkpt lat="43.73788" lon="6.58686">
        <ele>1146.8</ele>
        <time>2021-09-12T13:53:42Z</time>
      </trkpt>
      <trkpt lat="43.73785" lon="6.58673">
        <ele>1145.3</ele>
        <time>2021-09-12T13:53:55Z</time>
      </trkpt>
      <trkpt lat="43.73781" lon="6.58661">
        <ele>1143.6</ele>
        <time>2021-09-12T13:54:08Z</time>
      </trkpt>
      <trkpt lat="43.73778" lon="6.5865">
        <ele>1142.6</ele>
        <time>2021-09-12T13:54:21Z</time>
      </trkpt>
      <trkpt lat="43.73771" lon="6.58636">
        <ele>1139.1</ele>
        <time>2021-09-12T13:54:38Z</time>
      </trkpt>
      <trkpt lat="43.73762" lon="6.58625">
        <ele>1134.3</ele>
        <time>2021-09-12T13:54:54Z</time>
      </trkpt>
      <trkpt lat="43.73753" lon="6.58616">
        <ele>1128.5</ele>
        <time>2021-09-12T13:55:09Z</time>
      </trkpt>
      <trkpt lat="43.73743" lon="6.58601">
        <ele>1124.7</ele>
        <time>2021-09-12T13:55:25Z</time>
      </trkpt>
      <trkpt lat="43.73736" lon="6.58588">
        <ele>1122.3</ele>
        <time>2021-09-12T13:55:40Z</time>
      </trkpt>
      <trkpt lat="43.73731" lon="6.5857">
        <ele>1120.9</ele>
        <time>2021-09-12T13:55:55Z</time>
      </trkpt>
      <trkpt lat="43.73724" lon="6.58559">
        <ele>1118.4</ele>
        <time>2021-09-12T13:56:12Z</time>
      </trkpt>
      <trkpt lat="43.73719" lon="6.58549">
        <ele>1116.3</ele>
        <time>2021-09-12T13:56:28Z</time>
      </trkpt>
      <trkpt lat="43.73716" lon="6.58544">
        <ele>1115.4</ele>
        <time>2021-09-12T13:59:48Z</time>
      </trkpt>
      <trkpt lat="43.73712" lon="6.58533">
        <ele>1113.9</ele>
        <time>2021-09-12T13:59:59Z</time>
      </trkpt>
      <trkpt lat="43.73711" lon="6.58528">
        <ele>1113.3</ele>
        <time>2021-09-12T14:00:03Z</time>
      </trkpt>
      <trkpt lat="43.73708" lon="6.5852">
        <ele>1112.4</ele>
        <time>2021-09-12T14:00:10Z</time>
      </trkpt>
      <trkpt lat="43.73704" lon="6.58503">
        <ele>1111.1</ele>
        <time>2021-09-12T14:00:24Z</time>
      </trkpt>
      <trkpt lat="43.737" lon="6.58488">
        <ele>1109</ele>
        <time>2021-09-12T14:00:40Z</time>
      </trkpt>
      <trkpt lat="43.73694" lon="6.58476">
        <ele>1105.6</ele>
        <time>2021-09-12T14:00:56Z</time>
      </trkpt>
      <trkpt lat="43.73687" lon="6.58463">
        <ele>1101.2</ele>
        <time>2021-09-12T14:01:13Z</time>
      </trkpt>
      <trkpt lat="43.73682" lon="6.58461">
        <ele>1098.7</ele>
        <time>2021-09-12T14:01:31Z</time>
      </trkpt>
      <trkpt lat="43.73672" lon="6.5846">
        <ele>1093.4</ele>
        <time>2021-09-12T14:01:52Z</time>
      </trkpt>
      <trkpt lat="43.7367" lon="6.58458">
        <ele>1092.3</ele>
        <time>2021-09-12T14:02:01Z</time>
      </trkpt>
      <trkpt lat="43.73663" lon="6.58466">
        <ele>1089.4</ele>
        <time>2021-09-12T14:02:16Z</time>
      </trkpt>
      <trkpt lat="43.73652" lon="6.58468">
        <ele>1085.5</ele>
        <time>2021-09-12T14:02:33Z</time>
      </trkpt>
      <trkpt lat="43.73642" lon="6.58473">
        <ele>1082.2</ele>
        <time>2021-09-12T14:02:48Z</time>
      </trkpt>
      <trkpt lat="43.73627" lon="6.58484">
        <ele>1076.9</ele>
        <time>2021-09-12T14:03:09Z</time>
      </trkpt>
      <trkpt lat="43.73615" lon="6.58484">
        <ele>1072.7</ele>
        <time>2021-09-12T14:03:26Z</time>
      </trkpt>
      <trkpt lat="43.73606" lon="6.58478">
        <ele>1069.5</ele>
        <time>2021-09-12T14:03:42Z</time>
      </trkpt>
      <trkpt lat="43.73597" lon="6.58481">
        <ele>1066.3</ele>
        <time>2021-09-12T14:03:56Z</time>
      </trkpt>
      <trkpt lat="43.73586" lon="6.58485">
        <ele>1062.2</ele>
        <time>2021-09-12T14:04:12Z</time>
      </trkpt>
      <trkpt lat="43.73576" lon="6.58497">
        <ele>1059.7</ele>
        <time>2021-09-12T14:04:30Z</time>
      </trkpt>
      <trkpt lat="43.73573" lon="6.58514">
        <ele>1058.6</ele>
        <time>2021-09-12T14:04:47Z</time>
      </trkpt>
      <trkpt lat="43.73572" lon="6.5853">
        <ele>1057.6</ele>
        <time>2021-09-12T14:05:03Z</time>
      </trkpt>
      <trkpt lat="43.7357" lon="6.58551">
        <ele>1056.3</ele>
        <time>2021-09-12T14:05:21Z</time>
      </trkpt>
      <trkpt lat="43.73563" lon="6.58567">
        <ele>1054.1</ele>
        <time>2021-09-12T14:05:38Z</time>
      </trkpt>
      <trkpt lat="43.73562" lon="6.58578">
        <ele>1053.1</ele>
        <time>2021-09-12T14:05:55Z</time>
      </trkpt>
      <trkpt lat="43.73562" lon="6.58577">
        <ele>1053.3</ele>
        <time>2021-09-12T14:07:11Z</time>
      </trkpt>
      <trkpt lat="43.73555" lon="6.58556">
        <ele>1052.7</ele>
        <time>2021-09-12T14:07:29Z</time>
      </trkpt>
      <trkpt lat="43.73548" lon="6.5853">
        <ele>1052.9</ele>
        <time>2021-09-12T14:07:50Z</time>
      </trkpt>
      <trkpt lat="43.73545" lon="6.58516">
        <ele>1053.1</ele>
        <time>2021-09-12T14:08:03Z</time>
      </trkpt>
      <trkpt lat="43.73544" lon="6.58517">
        <ele>1052.9</ele>
        <time>2021-09-12T14:08:34Z</time>
      </trkpt>
      <trkpt lat="43.73544" lon="6.58517">
        <ele>1052.7</ele>
        <time>2021-09-12T14:09:25Z</time>
      </trkpt>
      <trkpt lat="43.73546" lon="6.58515">
        <ele>1053.4</ele>
        <time>2021-09-12T14:10:03Z</time>
      </trkpt>
      <trkpt lat="43.73545" lon="6.58516">
        <ele>1053.1</ele>
        <time>2021-09-12T14:10:47Z</time>
      </trkpt>
      <trkpt lat="43.73546" lon="6.5851">
        <ele>1053.6</ele>
        <time>2021-09-12T14:11:07Z</time>
      </trkpt>
      <trkpt lat="43.73543" lon="6.58492">
        <ele>1053.9</ele>
        <time>2021-09-12T14:11:21Z</time>
      </trkpt>
      <trkpt lat="43.73539" lon="6.58469">
        <ele>1054</ele>
        <time>2021-09-12T14:11:37Z</time>
      </trkpt>
      <trkpt lat="43.73535" lon="6.58451">
        <ele>1053.9</ele>
        <time>2021-09-12T14:11:51Z</time>
      </trkpt>
      <trkpt lat="43.73529" lon="6.58429">
        <ele>1053.7</ele>
        <time>2021-09-12T14:12:07Z</time>
      </trkpt>
      <trkpt lat="43.73529" lon="6.58407">
        <ele>1054.5</ele>
        <time>2021-09-12T14:13:02Z</time>
      </trkpt>
      <trkpt lat="43.73528" lon="6.58374">
        <ele>1055.4</ele>
        <time>2021-09-12T14:13:20Z</time>
      </trkpt>
      <trkpt lat="43.73525" lon="6.58348">
        <ele>1055.8</ele>
        <time>2021-09-12T14:13:36Z</time>
      </trkpt>
      <trkpt lat="43.73524" lon="6.58321">
        <ele>1057</ele>
        <time>2021-09-12T14:13:52Z</time>
      </trkpt>
      <trkpt lat="43.73523" lon="6.58299">
        <ele>1058.4</ele>
        <time>2021-09-12T14:14:07Z</time>
      </trkpt>
      <trkpt lat="43.73522" lon="6.58275">
        <ele>1059.9</ele>
        <time>2021-09-12T14:14:22Z</time>
      </trkpt>
      <trkpt lat="43.73521" lon="6.58247">
        <ele>1061.6</ele>
        <time>2021-09-12T14:14:38Z</time>
      </trkpt>
      <trkpt lat="43.73521" lon="6.58221">
        <ele>1061.5</ele>
        <time>2021-09-12T14:14:53Z</time>
      </trkpt>
      <trkpt lat="43.73521" lon="6.58199">
        <ele>1061.6</ele>
        <time>2021-09-12T14:15:08Z</time>
      </trkpt>
      <trkpt lat="43.73522" lon="6.58197">
        <ele>1061.7</ele>
        <time>2021-09-12T14:15:11Z</time>
      </trkpt>
      <trkpt lat="43.73522" lon="6.58191">
        <ele>1061.7</ele>
        <time>2021-09-12T14:15:14Z</time>
      </trkpt>
      <trkpt lat="43.73523" lon="6.58177">
        <ele>1061.8</ele>
        <time>2021-09-12T14:15:28Z</time>
      </trkpt>
      <trkpt lat="43.73523" lon="6.58175">
        <ele>1061.8</ele>
        <time>2021-09-12T14:15:32Z</time>
      </trkpt>
      <trkpt lat="43.73523" lon="6.5817">
        <ele>1061.9</ele>
        <time>2021-09-12T14:15:35Z</time>
      </trkpt>
      <trkpt lat="43.73524" lon="6.58163">
        <ele>1062.1</ele>
        <time>2021-09-12T14:15:39Z</time>
      </trkpt>
      <trkpt lat="43.73526" lon="6.5813">
        <ele>1063.7</ele>
        <time>2021-09-12T14:15:58Z</time>
      </trkpt>
      <trkpt lat="43.73528" lon="6.58107">
        <ele>1064.9</ele>
        <time>2021-09-12T14:16:11Z</time>
      </trkpt>
      <trkpt lat="43.7353" lon="6.58098">
        <ele>1065.4</ele>
        <time>2021-09-12T14:16:17Z</time>
      </trkpt>
      <trkpt lat="43.7353" lon="6.58071">
        <ele>1066.1</ele>
        <time>2021-09-12T14:16:33Z</time>
      </trkpt>
      <trkpt lat="43.73532" lon="6.58046">
        <ele>1066.7</ele>
        <time>2021-09-12T14:16:48Z</time>
      </trkpt>
      <trkpt lat="43.73534" lon="6.58027">
        <ele>1067.4</ele>
        <time>2021-09-12T14:17:01Z</time>
      </trkpt>
      <trkpt lat="43.73534" lon="6.58004">
        <ele>1067.7</ele>
        <time>2021-09-12T14:17:16Z</time>
      </trkpt>
      <trkpt lat="43.73534" lon="6.57981">
        <ele>1067.4</ele>
        <time>2021-09-12T14:17:30Z</time>
      </trkpt>
      <trkpt lat="43.73534" lon="6.57957">
        <ele>1067.1</ele>
        <time>2021-09-12T14:17:45Z</time>
      </trkpt>
      <trkpt lat="43.73534" lon="6.57932">
        <ele>1066.8</ele>
        <time>2021-09-12T14:18:00Z</time>
      </trkpt>
      <trkpt lat="43.73537" lon="6.57906">
        <ele>1068</ele>
        <time>2021-09-12T14:18:17Z</time>
      </trkpt>
      <trkpt lat="43.73537" lon="6.5788">
        <ele>1069.4</ele>
        <time>2021-09-12T14:18:33Z</time>
      </trkpt>
      <trkpt lat="43.73536" lon="6.57864">
        <ele>1070</ele>
        <time>2021-09-12T14:18:49Z</time>
      </trkpt>
      <trkpt lat="43.73535" lon="6.57841">
        <ele>1071</ele>
        <time>2021-09-12T14:19:02Z</time>
      </trkpt>
      <trkpt lat="43.73533" lon="6.57835">
        <ele>1070.7</ele>
        <time>2021-09-12T14:19:12Z</time>
      </trkpt>
      <trkpt lat="43.7353" lon="6.57824">
        <ele>1070.5</ele>
        <time>2021-09-12T14:19:27Z</time>
      </trkpt>
      <trkpt lat="43.73528" lon="6.57818">
        <ele>1070.4</ele>
        <time>2021-09-12T14:19:33Z</time>
      </trkpt>
      <trkpt lat="43.73521" lon="6.57792">
        <ele>1069.8</ele>
        <time>2021-09-12T14:19:50Z</time>
      </trkpt>
      <trkpt lat="43.73513" lon="6.57765">
        <ele>1069.2</ele>
        <time>2021-09-12T14:20:07Z</time>
      </trkpt>
      <trkpt lat="43.73506" lon="6.57746">
        <ele>1068.2</ele>
        <time>2021-09-12T14:20:22Z</time>
      </trkpt>
      <trkpt lat="43.73499" lon="6.57725">
        <ele>1067.1</ele>
        <time>2021-09-12T14:20:40Z</time>
      </trkpt>
      <trkpt lat="43.73492" lon="6.57704">
        <ele>1066.5</ele>
        <time>2021-09-12T14:20:56Z</time>
      </trkpt>
      <trkpt lat="43.73488" lon="6.57685">
        <ele>1066.2</ele>
        <time>2021-09-12T14:21:11Z</time>
      </trkpt>
      <trkpt lat="43.73486" lon="6.57658">
        <ele>1067.3</ele>
        <time>2021-09-12T14:21:29Z</time>
      </trkpt>
      <trkpt lat="43.73486" lon="6.57633">
        <ele>1068.1</ele>
        <time>2021-09-12T14:21:45Z</time>
      </trkpt>
      <trkpt lat="43.73484" lon="6.57607">
        <ele>1068.7</ele>
        <time>2021-09-12T14:22:01Z</time>
      </trkpt>
      <trkpt lat="43.73484" lon="6.5758">
        <ele>1069.8</ele>
        <time>2021-09-12T14:22:17Z</time>
      </trkpt>
      <trkpt lat="43.73481" lon="6.57556">
        <ele>1070.5</ele>
        <time>2021-09-12T14:22:33Z</time>
      </trkpt>
      <trkpt lat="43.73478" lon="6.57531">
        <ele>1071</ele>
        <time>2021-09-12T14:22:49Z</time>
      </trkpt>
      <trkpt lat="43.73478" lon="6.57511">
        <ele>1071.9</ele>
        <time>2021-09-12T14:23:02Z</time>
      </trkpt>
      <trkpt lat="43.73477" lon="6.57487">
        <ele>1073.4</ele>
        <time>2021-09-12T14:23:17Z</time>
      </trkpt>
      <trkpt lat="43.73472" lon="6.57459">
        <ele>1073.8</ele>
        <time>2021-09-12T14:23:35Z</time>
      </trkpt>
      <trkpt lat="43.73464" lon="6.57438">
        <ele>1072.9</ele>
        <time>2021-09-12T14:23:51Z</time>
      </trkpt>
      <trkpt lat="43.73461" lon="6.57434">
        <ele>1072.2</ele>
        <time>2021-09-12T14:24:06Z</time>
      </trkpt>
      <trkpt lat="43.73463" lon="6.57434">
        <ele>1072.6</ele>
        <time>2021-09-12T14:24:43Z</time>
      </trkpt>
      <trkpt lat="43.73463" lon="6.57433">
        <ele>1072.9</ele>
        <time>2021-09-12T14:24:54Z</time>
      </trkpt>
      <trkpt lat="43.73456" lon="6.57406">
        <ele>1072.5</ele>
        <time>2021-09-12T14:25:10Z</time>
      </trkpt>
      <trkpt lat="43.7345" lon="6.5738">
        <ele>1072.7</ele>
        <time>2021-09-12T14:25:25Z</time>
      </trkpt>
      <trkpt lat="43.73451" lon="6.57353">
        <ele>1075.3</ele>
        <time>2021-09-12T14:25:39Z</time>
      </trkpt>
      <trkpt lat="43.73445" lon="6.57331">
        <ele>1075.3</ele>
        <time>2021-09-12T14:25:52Z</time>
      </trkpt>
      <trkpt lat="43.73438" lon="6.57309">
        <ele>1074.5</ele>
        <time>2021-09-12T14:26:05Z</time>
      </trkpt>
      <trkpt lat="43.7343" lon="6.57285">
        <ele>1073</ele>
        <time>2021-09-12T14:26:20Z</time>
      </trkpt>
      <trkpt lat="43.73426" lon="6.57256">
        <ele>1073.2</ele>
        <time>2021-09-12T14:26:35Z</time>
      </trkpt>
      <trkpt lat="43.73424" lon="6.57234">
        <ele>1073.4</ele>
        <time>2021-09-12T14:26:47Z</time>
      </trkpt>
      <trkpt lat="43.73422" lon="6.572">
        <ele>1074.6</ele>
        <time>2021-09-12T14:27:04Z</time>
      </trkpt>
      <trkpt lat="43.7342" lon="6.57173">
        <ele>1075.1</ele>
        <time>2021-09-12T14:27:20Z</time>
      </trkpt>
      <trkpt lat="43.73419" lon="6.57159">
        <ele>1074.9</ele>
        <time>2021-09-12T14:27:32Z</time>
      </trkpt>
      <trkpt lat="43.73418" lon="6.57145">
        <ele>1074.8</ele>
        <time>2021-09-12T14:27:46Z</time>
      </trkpt>
      <trkpt lat="43.7342" lon="6.57147">
        <ele>1075.3</ele>
        <time>2021-09-12T14:28:27Z</time>
      </trkpt>
      <trkpt lat="43.7342" lon="6.57141">
        <ele>1075.3</ele>
        <time>2021-09-12T14:28:30Z</time>
      </trkpt>
      <trkpt lat="43.7342" lon="6.57118">
        <ele>1075.3</ele>
        <time>2021-09-12T14:28:42Z</time>
      </trkpt>
      <trkpt lat="43.73419" lon="6.57109">
        <ele>1074.9</ele>
        <time>2021-09-12T14:28:47Z</time>
      </trkpt>
      <trkpt lat="43.7342" lon="6.5708">
        <ele>1075.4</ele>
        <time>2021-09-12T14:29:02Z</time>
      </trkpt>
      <trkpt lat="43.73422" lon="6.57057">
        <ele>1075.7</ele>
        <time>2021-09-12T14:29:16Z</time>
      </trkpt>
      <trkpt lat="43.73424" lon="6.57026">
        <ele>1076.2</ele>
        <time>2021-09-12T14:29:32Z</time>
      </trkpt>
      <trkpt lat="43.73426" lon="6.57003">
        <ele>1076.7</ele>
        <time>2021-09-12T14:29:46Z</time>
      </trkpt>
      <trkpt lat="43.73428" lon="6.5698">
        <ele>1076.2</ele>
        <time>2021-09-12T14:29:59Z</time>
      </trkpt>
      <trkpt lat="43.7343" lon="6.56958">
        <ele>1076.3</ele>
        <time>2021-09-12T14:30:11Z</time>
      </trkpt>
      <trkpt lat="43.73428" lon="6.56944">
        <ele>1074.4</ele>
        <time>2021-09-12T14:30:19Z</time>
      </trkpt>
      <trkpt lat="43.73434" lon="6.56924">
        <ele>1076</ele>
        <time>2021-09-12T14:30:32Z</time>
      </trkpt>
      <trkpt lat="43.73439" lon="6.56901">
        <ele>1078.5</ele>
        <time>2021-09-12T14:30:45Z</time>
      </trkpt>
      <trkpt lat="43.7344" lon="6.56878">
        <ele>1079.5</ele>
        <time>2021-09-12T14:30:58Z</time>
      </trkpt>
      <trkpt lat="43.73445" lon="6.56861">
        <ele>1081.6</ele>
        <time>2021-09-12T14:31:08Z</time>
      </trkpt>
      <trkpt lat="43.73455" lon="6.56835">
        <ele>1084.6</ele>
        <time>2021-09-12T14:31:23Z</time>
      </trkpt>
      <trkpt lat="43.73452" lon="6.56815">
        <ele>1085.3</ele>
        <time>2021-09-12T14:31:35Z</time>
      </trkpt>
      <trkpt lat="43.73448" lon="6.56809">
        <ele>1084.8</ele>
        <time>2021-09-12T14:31:39Z</time>
      </trkpt>
      <trkpt lat="43.73439" lon="6.5681">
        <ele>1082.8</ele>
        <time>2021-09-12T14:31:45Z</time>
      </trkpt>
      <trkpt lat="43.73422" lon="6.56822">
        <ele>1077.2</ele>
        <time>2021-09-12T14:32:01Z</time>
      </trkpt>
      <trkpt lat="43.7341" lon="6.56832">
        <ele>1074</ele>
        <time>2021-09-12T14:32:13Z</time>
      </trkpt>
      <trkpt lat="43.73398" lon="6.56841">
        <ele>1072.6</ele>
        <time>2021-09-12T14:32:25Z</time>
      </trkpt>
      <trkpt lat="43.73387" lon="6.56842">
        <ele>1072</ele>
        <time>2021-09-12T14:32:36Z</time>
      </trkpt>
      <trkpt lat="43.73375" lon="6.5684">
        <ele>1071.9</ele>
        <time>2021-09-12T14:34:03Z</time>
      </trkpt>
      <trkpt lat="43.73371" lon="6.56839">
        <ele>1072</ele>
        <time>2021-09-12T14:34:10Z</time>
      </trkpt>
      <trkpt lat="43.73356" lon="6.56834">
        <ele>1072.4</ele>
        <time>2021-09-12T14:34:23Z</time>
      </trkpt>
      <trkpt lat="43.7334" lon="6.56828">
        <ele>1073.2</ele>
        <time>2021-09-12T14:34:37Z</time>
      </trkpt>
      <trkpt lat="43.73338" lon="6.56826">
        <ele>1073.4</ele>
        <time>2021-09-12T14:34:39Z</time>
      </trkpt>
      <trkpt lat="43.7332" lon="6.56823">
        <ele>1074.6</ele>
        <time>2021-09-12T14:34:53Z</time>
      </trkpt>
      <trkpt lat="43.7331" lon="6.56826">
        <ele>1074.6</ele>
        <time>2021-09-12T14:35:04Z</time>
      </trkpt>
      <trkpt lat="43.73302" lon="6.56829">
        <ele>1074.4</ele>
        <time>2021-09-12T14:35:18Z</time>
      </trkpt>
      <trkpt lat="43.73292" lon="6.5683">
        <ele>1074.7</ele>
        <time>2021-09-12T14:35:35Z</time>
      </trkpt>
      <trkpt lat="43.73271" lon="6.5683">
        <ele>1075.7</ele>
        <time>2021-09-12T14:35:56Z</time>
      </trkpt>
      <trkpt lat="43.73253" lon="6.56833">
        <ele>1076</ele>
        <time>2021-09-12T14:36:16Z</time>
      </trkpt>
      <trkpt lat="43.73236" lon="6.56832">
        <ele>1075.9</ele>
        <time>2021-09-12T14:36:31Z</time>
      </trkpt>
      <trkpt lat="43.73233" lon="6.56831">
        <ele>1075.8</ele>
        <time>2021-09-12T14:36:34Z</time>
      </trkpt>
      <trkpt lat="43.73218" lon="6.56831">
        <ele>1075.3</ele>
        <time>2021-09-12T14:36:48Z</time>
      </trkpt>
      <trkpt lat="43.73198" lon="6.56839">
        <ele>1073.9</ele>
        <time>2021-09-12T14:37:12Z</time>
      </trkpt>
      <trkpt lat="43.73192" lon="6.56843">
        <ele>1073.7</ele>
        <time>2021-09-12T14:37:38Z</time>
      </trkpt>
      <trkpt lat="43.7318" lon="6.56849">
        <ele>1073.6</ele>
        <time>2021-09-12T14:37:57Z</time>
      </trkpt>
      <trkpt lat="43.73169" lon="6.5686">
        <ele>1074.2</ele>
        <time>2021-09-12T14:38:12Z</time>
      </trkpt>
      <trkpt lat="43.73158" lon="6.56878">
        <ele>1073.3</ele>
        <time>2021-09-12T14:38:33Z</time>
      </trkpt>
      <trkpt lat="43.73151" lon="6.56901">
        <ele>1073.2</ele>
        <time>2021-09-12T14:38:55Z</time>
      </trkpt>
      <trkpt lat="43.73137" lon="6.56929">
        <ele>1072.1</ele>
        <time>2021-09-12T14:39:21Z</time>
      </trkpt>
      <trkpt lat="43.73125" lon="6.56951">
        <ele>1071.5</ele>
        <time>2021-09-12T14:39:45Z</time>
      </trkpt>
      <trkpt lat="43.73117" lon="6.56968">
        <ele>1072</ele>
        <time>2021-09-12T14:40:01Z</time>
      </trkpt>
      <trkpt lat="43.73108" lon="6.56982">
        <ele>1073.2</ele>
        <time>2021-09-12T14:40:14Z</time>
      </trkpt>
      <trkpt lat="43.73103" lon="6.56988">
        <ele>1074.1</ele>
        <time>2021-09-12T14:40:20Z</time>
      </trkpt>
      <trkpt lat="43.73101" lon="6.56992">
        <ele>1074.6</ele>
        <time>2021-09-12T14:40:23Z</time>
      </trkpt>
      <trkpt lat="43.73092" lon="6.57009">
        <ele>1075.7</ele>
        <time>2021-09-12T14:40:39Z</time>
      </trkpt>
      <trkpt lat="43.73091" lon="6.57014">
        <ele>1075.6</ele>
        <time>2021-09-12T14:40:49Z</time>
      </trkpt>
      <trkpt lat="43.73087" lon="6.57026">
        <ele>1075.6</ele>
        <time>2021-09-12T14:41:13Z</time>
      </trkpt>
      <trkpt lat="43.73071" lon="6.5705">
        <ele>1072</ele>
        <time>2021-09-12T14:41:35Z</time>
      </trkpt>
      <trkpt lat="43.73068" lon="6.57062">
        <ele>1071.3</ele>
        <time>2021-09-12T14:41:52Z</time>
      </trkpt>
      <trkpt lat="43.73074" lon="6.57074">
        <ele>1072.4</ele>
        <time>2021-09-12T14:42:12Z</time>
      </trkpt>
      <trkpt lat="43.73066" lon="6.5707">
        <ele>1070.9</ele>
        <time>2021-09-12T14:42:23Z</time>
      </trkpt>
      <trkpt lat="43.73068" lon="6.5707">
        <ele>1071.3</ele>
        <time>2021-09-12T14:42:38Z</time>
      </trkpt>
      <trkpt lat="43.73069" lon="6.5707">
        <ele>1071.4</ele>
        <time>2021-09-12T14:42:51Z</time>
      </trkpt>
      <trkpt lat="43.73064" lon="6.57076">
        <ele>1070.4</ele>
        <time>2021-09-12T14:42:59Z</time>
      </trkpt>
      <trkpt lat="43.7305" lon="6.57091">
        <ele>1067.7</ele>
        <time>2021-09-12T14:43:13Z</time>
      </trkpt>
      <trkpt lat="43.73041" lon="6.57106">
        <ele>1065.8</ele>
        <time>2021-09-12T14:43:28Z</time>
      </trkpt>
      <trkpt lat="43.73036" lon="6.57114">
        <ele>1065.3</ele>
        <time>2021-09-12T14:43:35Z</time>
      </trkpt>
      <trkpt lat="43.73035" lon="6.57119">
        <ele>1065.2</ele>
        <time>2021-09-12T14:43:44Z</time>
      </trkpt>
      <trkpt lat="43.73032" lon="6.57133">
        <ele>1065.1</ele>
        <time>2021-09-12T14:43:58Z</time>
      </trkpt>
      <trkpt lat="43.73027" lon="6.57157">
        <ele>1065.5</ele>
        <time>2021-09-12T14:44:17Z</time>
      </trkpt>
      <trkpt lat="43.73026" lon="6.57168">
        <ele>1065.8</ele>
        <time>2021-09-12T14:44:30Z</time>
      </trkpt>
      <trkpt lat="43.73021" lon="6.57181">
        <ele>1066.1</ele>
        <time>2021-09-12T14:44:46Z</time>
      </trkpt>
      <trkpt lat="43.73016" lon="6.57191">
        <ele>1066.9</ele>
        <time>2021-09-12T14:45:03Z</time>
      </trkpt>
      <trkpt lat="43.73016" lon="6.572">
        <ele>1066.9</ele>
        <time>2021-09-12T14:45:12Z</time>
      </trkpt>
      <trkpt lat="43.73016" lon="6.57209">
        <ele>1067.1</ele>
        <time>2021-09-12T14:45:22Z</time>
      </trkpt>
      <trkpt lat="43.73014" lon="6.57231">
        <ele>1067.7</ele>
        <time>2021-09-12T14:45:36Z</time>
      </trkpt>
      <trkpt lat="43.73017" lon="6.57249">
        <ele>1067.1</ele>
        <time>2021-09-12T14:45:54Z</time>
      </trkpt>
      <trkpt lat="43.73015" lon="6.57245">
        <ele>1067.7</ele>
        <time>2021-09-12T14:46:14Z</time>
      </trkpt>
      <trkpt lat="43.73014" lon="6.57242">
        <ele>1067.9</ele>
        <time>2021-09-12T14:46:30Z</time>
      </trkpt>
      <trkpt lat="43.73015" lon="6.5725">
        <ele>1067.7</ele>
        <time>2021-09-12T14:46:37Z</time>
      </trkpt>
      <trkpt lat="43.73018" lon="6.57283">
        <ele>1063.6</ele>
        <time>2021-09-12T14:46:58Z</time>
      </trkpt>
      <trkpt lat="43.73017" lon="6.57302">
        <ele>1062.1</ele>
        <time>2021-09-12T14:47:16Z</time>
      </trkpt>
      <trkpt lat="43.7301" lon="6.57308">
        <ele>1063.8</ele>
        <time>2021-09-12T14:47:33Z</time>
      </trkpt>
      <trkpt lat="43.73006" lon="6.57297">
        <ele>1065.9</ele>
        <time>2021-09-12T14:47:49Z</time>
      </trkpt>
      <trkpt lat="43.7301" lon="6.57292">
        <ele>1065.2</ele>
        <time>2021-09-12T14:48:05Z</time>
      </trkpt>
      <trkpt lat="43.73005" lon="6.57283">
        <ele>1067.6</ele>
        <time>2021-09-12T14:49:03Z</time>
      </trkpt>
      <trkpt lat="43.73001" lon="6.57294">
        <ele>1068.1</ele>
        <time>2021-09-12T14:49:20Z</time>
      </trkpt>
      <trkpt lat="43.73001" lon="6.57307">
        <ele>1066.8</ele>
        <time>2021-09-12T14:49:35Z</time>
      </trkpt>
      <trkpt lat="43.72994" lon="6.57312">
        <ele>1064.4</ele>
        <time>2021-09-12T14:49:53Z</time>
      </trkpt>
      <trkpt lat="43.72992" lon="6.57295">
        <ele>1065.1</ele>
        <time>2021-09-12T14:50:07Z</time>
      </trkpt>
      <trkpt lat="43.72992" lon="6.57285">
        <ele>1065.6</ele>
        <time>2021-09-12T14:50:19Z</time>
      </trkpt>
      <trkpt lat="43.72995" lon="6.57262">
        <ele>1068.8</ele>
        <time>2021-09-12T14:50:31Z</time>
      </trkpt>
      <trkpt lat="43.72993" lon="6.5725">
        <ele>1068.8</ele>
        <time>2021-09-12T14:50:40Z</time>
      </trkpt>
      <trkpt lat="43.72994" lon="6.57237">
        <ele>1068.5</ele>
        <time>2021-09-12T14:50:49Z</time>
      </trkpt>
      <trkpt lat="43.72995" lon="6.57228">
        <ele>1068.6</ele>
        <time>2021-09-12T14:50:56Z</time>
      </trkpt>
      <trkpt lat="43.72996" lon="6.57213">
        <ele>1068.6</ele>
        <time>2021-09-12T14:51:06Z</time>
      </trkpt>
      <trkpt lat="43.72989" lon="6.57195">
        <ele>1064.2</ele>
        <time>2021-09-12T14:51:23Z</time>
      </trkpt>
      <trkpt lat="43.72982" lon="6.5718">
        <ele>1060.6</ele>
        <time>2021-09-12T14:51:35Z</time>
      </trkpt>
      <trkpt lat="43.72989" lon="6.57154">
        <ele>1061.4</ele>
        <time>2021-09-12T14:51:50Z</time>
      </trkpt>
      <trkpt lat="43.72988" lon="6.57151">
        <ele>1061</ele>
        <time>2021-09-12T14:51:52Z</time>
      </trkpt>
      <trkpt lat="43.72991" lon="6.57126">
        <ele>1059.4</ele>
        <time>2021-09-12T14:52:09Z</time>
      </trkpt>
      <trkpt lat="43.72996" lon="6.57113">
        <ele>1060.6</ele>
        <time>2021-09-12T14:52:24Z</time>
      </trkpt>
      <trkpt lat="43.73001" lon="6.57108">
        <ele>1061.7</ele>
        <time>2021-09-12T14:52:45Z</time>
      </trkpt>
      <trkpt lat="43.73002" lon="6.57104">
        <ele>1061.5</ele>
        <time>2021-09-12T14:53:00Z</time>
      </trkpt>
    </trkseg>
  </trk>
</gpx>